Compare commits

...
Author SHA1 Message Date
Madalina Raicu 0d8176e9b4 fix: update gov and explor. metadata & remove second side 2023-08-11 11:14:11 +03:00
Madalina Raicu d515186bd0 Merge branch 'develop' of github.com:vegaprotocol/frontend-monorepo into feat/metadata-console 2023-08-11 11:12:32 +03:00
m.ray 1b311a8b36 fix(trading): order single view side (#4526) 2023-08-11 09:12:13 +01:00
Madalina Raicu f04bfec1a9 fix: revert env 2023-08-11 11:04:51 +03:00
Madalina Raicu 2acabb3043 fix: add assets for metadata 2023-08-11 11:04:06 +03:00
Madalina Raicu 1296faab8d fix: add assets for metadata 2023-08-11 11:03:45 +03:00
Madalina Raicu 1e39248d63 fix: index page tsx grid 2023-08-11 10:59:42 +03:00
Madalina Raicu 22c893dc73 chore: update metadata 2023-08-10 23:45:37 +03:00
Madalina Raicu a1a70887ec Merge branch 'develop' of github.com:vegaprotocol/frontend-monorepo into feat/metadata-console 2023-08-10 23:37:39 +03:00
Matthew Russell 70c3bc8128 chore(trading): remove floating buttons (#4512) 2023-08-10 16:02:46 +01:00
Joe Tsang 7e49836875 chore(governance): add e2e for successor market diff (#4519) 2023-08-10 15:03:23 +01:00
Maciek d624957e6d chore(trading): 4384 all markets in switcher (#4516) 2023-08-10 14:25:13 +01:00
Maciekandasiaznik 069b57d4ae feat(wallet): 4370 new connect wallet modal (#4492)
Co-authored-by: asiaznik <artur@vegaprotocol.io>
2023-08-10 13:03:53 +02:00
Mikołaj Młodzikowski 6894fe1264 fix(ci): hardcode env name 2023-08-10 12:53:35 +02:00
Edd 93e4b5fdb9 feat(explorer): successor markets (#4522) 2023-08-10 09:51:44 +01:00
Maciek 1566fc3984 chore: fulfill spec to 4323 (#4520) 2023-08-10 09:20:26 +02:00
Madalina Raicu d537b2a510 Merge branch 'develop' of github.com:vegaprotocol/frontend-monorepo into feat/metadata-console 2023-08-09 17:46:20 +03:00
Madalina Raicu 9ff43f9630 feat(trading): metadata explorer & governance 2023-08-09 17:13:16 +03:00
Madalina Raicu b5996eae39 feat(trading): metadata console 2023-08-09 17:12:44 +03:00
Madalina Raicu 8b33e9a099 feat(trading): metadata console 2023-08-09 16:36:38 +03:00
Ben 39962a0246 chore(trading): update console-test runners (#4513) 2023-08-09 14:18:24 +01:00
Sam KeenandJoe 8d31510d5e feat(governance,markets,ui-toolkit): highlight successor market changes (#4449)
Co-authored-by: Joe <joe@vega.xyz>
2023-08-09 14:05:37 +01:00
Bartłomiej Głownia 26d5a67604 feat(trading): use custom toast content for stop order related transactions (#4476) 2023-08-09 14:47:10 +02:00
Bartłomiej Głownia 9cc8f5a377 feat(trading): use instrument code instead of name in positions, fills and accounts breakdown tables (#4478) 2023-08-09 12:12:07 +02:00
Matthew Russell 2e11cf4dfa fix(trading): fix persitance of resizable grid top section (#4508) 2023-08-09 11:04:32 +01:00
Bartłomiej Głownia 9e4ba9f275 feat(trading): merge deal ticket stores (#4494) 2023-08-09 11:54:16 +02:00
m.ray aac0c25d09 fix(trading): positions tooltips update (#4504) 2023-08-08 13:27:17 +01:00
Art d20c2a08ae chore(specs): succession line specs (#4505) 2023-08-08 11:23:28 +01:00
daro-maj 4e6ba5fe3d test(trading): update cypress tests (#4503) 2023-08-08 10:36:10 +02:00
Art 276d1d7c7b feat(governance): view as button (#4501) 2023-08-08 09:50:19 +02:00
m.ray 4990c5808d fix(trading): order iceberg fills (#4502) 2023-08-07 16:07:24 +00:00
Madalina Raicu ab1a2cb222 Merge branch 'develop' of github.com:vegaprotocol/frontend-monorepo into develop 2023-08-07 16:22:11 +01:00
Art cdd91c24f2 feat(markets): succession line (#4491) 2023-08-07 11:46:03 +00:00
Sam Keen e3eb13ca72 fix(explorer): footer visual tweaks (#4499) 2023-08-07 11:54:46 +01:00
Matthew Russell 3f0ebbf33d fix(trading): dont render get started if connected (#4490) 2023-08-07 11:35:55 +01:00
Matthew Russell 026aa3964b chore(trading): update pennant (#4493) 2023-08-07 11:06:49 +01:00
Madalina Raicu e1a1ae0fa1 Merge branch 'develop' of github.com:vegaprotocol/frontend-monorepo into develop 2023-08-07 10:16:03 +01:00
daro-maj aa4c5a4a57 test(trading): update cypress tests (#4496) 2023-08-07 10:28:13 +02:00
Matthew Russell 0874314d2a chore: add specs (#4497) 2023-08-07 08:41:25 +01:00
Matthew Russell a70a7bcc8e fix(trading): dont show connect wallet message in deal ticket (#4482) 2023-08-04 11:09:43 +01:00
Matthew Russell 4461a6a497 fix(trading): remove hover state from disabled view as button (#4487) 2023-08-04 11:08:48 +01:00
Matthew Russell 1041864ad8 chore(trading): remove unnecessary forwarding of grid refs (#4486) 2023-08-04 11:08:28 +01:00
Matthew Russell 015e0188ec chore: enable iceberg orders 2023-08-03 12:38:51 +01:00
Matthew Russell 228236c152 chore(deal-ticket): type dropdown icon (#4468) 2023-08-03 12:15:21 +01:00
Art cd6e906dc6 feat(trading): view as button in sidebar (#4470) 2023-08-03 12:14:35 +01:00
Maciek 8a47a92dbd fix(trading): add info splashes on deposit and withdrawals list containers (#4479) 2023-08-03 12:01:42 +01:00
Matthew Russell af14c27df9 chore(trading): responsive welcome dialog content and content update (#4475) 2023-08-03 12:01:09 +01:00
Matthew Russell 38edcd88c0 chore(trading): fix alignment of expire (#4477) 2023-08-03 12:00:12 +01:00
m.ray a74cf02030 feat(trading): order details dialog (#4281) 2023-08-03 10:05:12 +00:00
Joe Tsang 6686755763 chore(governance): fix failing tests from nightly run (#4453) 2023-08-03 10:01:00 +01:00
Joe Tsang 79cf8163be chore(governance): add e2e test for successor market (#4471) 2023-08-03 09:54:51 +01:00
Matthew Russell 1688e26f4b feat(trading): add fairground texture background to logo (#4474) 2023-08-03 09:28:01 +01:00
Art 5e101a8eaf feat(trading): deposit page (#4472) 2023-08-02 19:06:49 +02:00
Matthew Russell 65071f57d0 fix(trading,governance): eager connection for browser wallet (#4444) 2023-08-02 17:16:09 +01:00
daro-maj b87c981a90 test(trading): fix for key-to-key test (#4469) 2023-08-02 18:11:31 +02:00
Joe TsangandMatthew Russell b509e5b347 test(explorer): e2e proposal test (#4379)
Co-authored-by: Matthew Russell <mattrussell36@gmail.com>
2023-08-02 16:37:55 +01:00
Maciek bb9fce4831 feat(trading): 4322 get started steps (#4440) 2023-08-02 15:34:04 +00:00
Matthew Russell 918825aca8 chore: adjust spacing and text size of long/short type selectors 2023-08-02 15:36:39 +01:00
Matthew Russell 74bf183fad feat(trading): 3114 pane context (#4442) 2023-08-02 15:29:41 +01:00
m.ray 674baa1ee3 fix(trading): iceberg order fills (#4460) 2023-08-02 16:55:49 +03:00
Matthew Russell d18a0c7e15 fix(trading): lp table forward ref breaking resize grid (#4447) 2023-08-02 13:59:05 +01:00
m.ray 76a6005b77 fix(trading): replace all markets with open markets (#4452) 2023-08-02 13:58:26 +01:00
JonRay15andMatthew Russell 79414614c2 chore(trading,governance,explorer): fix issue template (#4459)
Co-authored-by: Matthew Russell <mattrussell36@gmail.com>
2023-08-02 12:52:51 +01:00
m.ray fde49e5446 fix(trading): order stopped misleading message (#4455) 2023-08-02 11:52:07 +01:00
JonRay15andMatthew Russell 45283161aa chore: create feature-epic issue template (#4456)
Co-authored-by: Matthew Russell <mattrussell36@gmail.com>
2023-08-02 11:48:23 +01:00
Bartłomiej GłowniaandDariusz Majcherczyk 375d447fa8 feat(trading): add stop orders table and form (#4265)
Co-authored-by: Dariusz Majcherczyk <dariusz.majcherczyk@gmail.com>
2023-08-02 11:28:33 +01:00
Mikołaj Młodzikowski 1dd97a2bce feat(ci): add develop docker image (#4458) 2023-08-02 10:58:17 +02:00
Edd d4a1a9b193 fix(explorer): add tests and fix transactions url generation (#4454) 2023-08-01 16:35:40 +01:00
Edd 376c5241a8 feat(explorer): improve transaction pagination (#4435) 2023-08-01 14:41:16 +00:00
Ciaran McGhie 8e6d8517cf feat(ui-toolkit,tailwindcss-config): healthbar auction level indicator (#4406) 2023-08-01 09:44:03 +01:00
Matthew Russell 5f9ec222c1 feat(trading): navigation (#4375) 2023-07-31 17:08:55 +01:00
Edd 8954c41c0a fix(governance): remove incorrect individual reward percentage (#4443) 2023-07-31 15:23:52 +00:00
Mikołaj Młodzikowski 4414ab4f47 feat(ci): wait for publish job to complete via github API 2023-07-31 15:04:34 +02:00
Mikołaj Młodzikowski d1d4bacc68 feat(ci): patch mainnet release 2023-07-31 13:09:00 +02:00
Joe Tsang f476688c7f chore(governance): fix failing proposal test (#4434) 2023-07-31 09:58:52 +01:00
Sam Keen 8845222700 feat(governance): remove max limit on associate function (#4427) 2023-07-28 11:12:29 +00:00
Radosław Szpiech e64c464091 chore(trading): move cumulative vol testid in orderbook (#4420) 2023-07-28 11:15:40 +02:00
Joe Tsang b2c2d0d7d6 test(governance): add e2e test and acs for proposal enhancements (#4421) 2023-07-28 09:34:39 +01:00
Joe Tsang 1fb61d313c chore(governance): add acs for network upgrade banner and estimate (#4402) 2023-07-28 09:34:30 +01:00
Mikołaj Młodzikowski ccf5ff632c feat(ci): setup new tests for console (#4400) 2023-07-28 07:32:07 +02:00
Maciek 54d6aaf56f feat(trading): add market successor proposal banner (#4401) 2023-07-27 14:54:00 +00:00
Mikołaj Młodzikowski 736b262947 fix(ci): publish of static dist (#4414) 2023-07-27 13:52:00 +02:00
Sam KeenandMatthew Russell 6a07127185 feat(governance): diff highlighter for update market proposals (#4260)
Co-authored-by: Matthew Russell <mattrussell36@gmail.com>
2023-07-27 11:26:32 +01:00
Sam Keen 45f0ba7c0e fix(explorer): explorer validator page filtering (#4354) 2023-07-27 09:04:54 +00:00
John WalleyandMatthew Russell 6f4ea68778 chore(trading): upgrade pennant to v1.10.0 (#4331)
Co-authored-by: Matthew Russell <mattrussell36@gmail.com>
2023-07-26 15:35:57 +01:00
Mikołaj Młodzikowski 90dda20891 feat(ci): migrate ci-cd trigger to python (#4330) 2023-07-26 16:08:57 +02:00
Art 278eb01c2f feat(governance): successor market proposal details (#4393) 2023-07-26 14:52:12 +02:00
Sam Keen c3157de146 fix(governance): removed icons test from proposal list item details (#4392) 2023-07-25 15:59:58 +00:00
d28db485c5 chore(trading): market relationship - parent market in proposals list (#4339)
Co-authored-by: asiaznik <artur@vegaprotocol.io>
Co-authored-by: Edd <edd@vega.xyz>
2023-07-25 15:32:40 +00:00
Maciek caa0076396 fix(deal-ticket): 4046 wrong margin requirement in order (#4378) 2023-07-25 14:52:32 +00:00
Edd 451da40ed2 feat(explorer): iceberg details on order tx (#4380) 2023-07-25 13:34:04 +00:00
Joe Tsang 47694e7b72 chore(explorer): explorer market e2e test (#4355) 2023-07-25 11:25:37 +01:00
Sam Keen e01fb7f9ae feat(governance): proposal list tile and summary enhancements (#4326) 2023-07-25 11:23:25 +01:00
Joe Tsang ffcdfb6a6a chore(governance): add e2e test for network upgrade banner (#4361) 2023-07-25 10:48:59 +01:00
Joe Tsang 86f0d013bb chore(governance): minor fixes to flaky nightly tests (#4335) 2023-07-25 10:48:49 +01:00
ArtandEdd c12ac45890 feat(environment): feature flags (#4343)
Co-authored-by: Edd <edd@vega.xyz>
2023-07-25 11:12:53 +02:00
47ce68455a chore(trading): fix flakey trading-trades test (#4363)
Co-authored-by: Matthew Russell <mattrussell36@gmail.com>
Co-authored-by: Art <artur@vegaprotocol.io>
Co-authored-by: Bartłomiej Głownia <bglownia@gmail.com>
Co-authored-by: Dariusz Majcherczyk <dariusz.majcherczyk@gmail.com>
2023-07-24 16:41:44 +01:00
c1675e4b49 feat(trading): design changes (#4264)
Co-authored-by: Art <artur@vegaprotocol.io>
Co-authored-by: Bartłomiej Głownia <bglownia@gmail.com>
Co-authored-by: Dariusz Majcherczyk <dariusz.majcherczyk@gmail.com>
2023-07-24 09:37:18 +01:00
Matthew Russell f8c4d39b93 fix(positions): fix valueGetter for realisedPNL in positions table 2023-07-20 17:55:21 +01:00
Matthew Russell e55cf5ecc6 chore(trading): cherry pick position pnl formatting fix (#4347) 2023-07-20 12:52:33 +01:00
Matthew Russell 406cf22810 chore(trading): remove user pnl from closed market list (#4312) 2023-07-20 12:52:13 +01:00
Edd 8ff46bab5b fix(explorer): fix valueformatter in enactment date on proposal table (#4358) 2023-07-20 10:52:49 +02:00
Art 5f177785b6 feat(governance): protocol upgrade notification, est. time (#4289) 2023-07-20 10:27:43 +02:00
Mikołaj Młodzikowski 06779f36ca feat(ci): fix typo 2023-07-19 16:42:47 +02:00
Sam Keen 29991015b5 fix(governance): filtered out nodes with 0 performance score from homepage list (#4267) 2023-07-19 13:32:57 +01:00
Matthew Russell 071a6ff8bb chore(explorer): clear out slack webhook (#4320) 2023-07-19 11:36:34 +01:00
5b8df4c414 chore(trading): orderbook adjustments (#4293)
Co-authored-by: Ben <ben@vega.xyz>
Co-authored-by: Mikołaj Młodzikowski <mikolaj.mlodzikowski@gmail.com>
Co-authored-by: Joe Tsang <30622993+jtsang586@users.noreply.github.com>
Co-authored-by: Dexter Edwards <dexter.edwards93@gmail.com>
Co-authored-by: m.ray <16125548+MadalinaRaicu@users.noreply.github.com>
Co-authored-by: Art <artur@vegaprotocol.io>
Co-authored-by: Bartłomiej Głownia <bglownia@gmail.com>
Co-authored-by: Gordsport <83510148+gordsport@users.noreply.github.com>
2023-07-18 14:48:51 +00:00
Daniel ce6873fe54 feat(environment): add mainnet mirror config (#4287) 2023-07-18 12:23:58 +01:00
Gordsport d0e64364e3 chore: update the PM action secret token (#4325) 2023-07-18 12:16:57 +01:00
Bartłomiej Głownia 737ffb4c35 feat(trading): copy order book volume value to deal ticket (#4333) 2023-07-18 12:16:07 +01:00
Maciek 53048ac8ef chore(trading): 4134 see if a closed market was succeeded (#4336) 2023-07-18 09:37:25 +00:00
Art 05ca1a09b9 chore(explorer): align staking terminology (#4290) 2023-07-18 09:03:48 +00:00
m.ray 94e398dd1c feat(trading): submit iceberg orders (#4230) 2023-07-17 14:24:51 +00:00
m.ray 7c0a4f61e9 fix(trading): add internal termination oracle (#4208) 2023-07-17 13:33:52 +00:00
m.ray 056d3215e8 feat(trading): view iceberg orders (#4207) 2023-07-17 13:04:03 +00:00
Dexter Edwards a68b2093e4 fix(ui-toolkit): toolkit bugs (#4329) 2023-07-17 10:59:22 +00:00
Mikołaj Młodzikowski f440f57be2 fix(ci): do not trigger releasing to s3 on pull requests 2023-07-14 13:45:06 +02:00
Mikołaj Młodzikowski edbdbcf38e feat(ci): provide fixes for releasing individual apps 2023-07-13 16:10:07 +02:00
Mikołaj Młodzikowski 94a067e34b fix(ci): disable pull_request_target (#4315) 2023-07-13 11:19:37 +02:00
Joe Tsang 8b6b904cd6 test(governance): un-skip governance tests (#4292) 2023-07-13 10:10:48 +01:00
Mikołaj Młodzikowski 27cd8086e1 fix(ci): syntax on switch case 2023-07-12 17:47:46 +02:00
Mikołaj Młodzikowski 6aa109131e feat(ci): allow individual releases of the applications (#4300) 2023-07-12 17:37:49 +02:00
Ben 74777e54f9 chore(ci): revert run console-test on CICD (#4303) 2023-07-12 16:26:52 +01:00
Ben 61e7450906 feat(trading): run console-test on CICD (#4271) 2023-07-12 12:06:48 +01:00
Matthew Russell 6a55319e04 feat(trading,governance,wallet): browser wallet integration (#4121) 2023-07-12 11:34:42 +01:00
Matthew Russell 5692d4e74c Merge branch 'develop' of github.com:vegaprotocol/frontend-monorepo into develop 2023-07-12 11:01:22 +01:00
Maciek ffe89d0fe0 feat(trading): add market banner for successor markets (#4269) 2023-07-12 11:20:01 +02:00
daro-maj 77e1390686 test(trading): fix capsule place order test (#4286) 2023-07-12 08:54:40 +01:00
656 changed files with 23807 additions and 9821 deletions
+2 -1
View File
@@ -51,7 +51,8 @@
"ul": ["list"],
"ol": ["list"]
}
]
],
"no-console": ["error", { "allow": ["warn", "error"] }]
}
},
{
+28
View File
@@ -0,0 +1,28 @@
---
name: Feature Epic
about: A template to capture and scope user requirements, high level process, and basic mockups for an upcoming feature as part of the initial core spec review process.
title: 'Epic: '
labels: feature-epic
---
## Core Feature
<Name>
## Tasks
- [ ] Define high level requirements
- [ ] Create basic mockups
- [ ] Update "API Requirements" in core spec
- [ ] Update "User-Interface Spec" in relevant front end repo
- [ ] Create detailed user stories using normal template
## High Level Requirements
## Basic Mockups
## Link to API Requirements in Core spec
## Link to User Interface Specs
## Linked User Stories
@@ -7,7 +7,7 @@ on:
jobs:
after-release:
runs-on: ubuntu-22.04
timeout-minutes: 30
timeout-minutes: 45
steps:
- name: Checkout
uses: actions/checkout@v3
@@ -30,18 +30,20 @@ jobs:
username: ${{ secrets.DOCKERHUB_USERNAME }}
password: ${{ secrets.DOCKERHUB_TOKEN }}
- name: Wait for publish to complete
uses: lewagon/wait-on-check-action@v1.3.1
with:
ref: ${{ github.event.release.tag_name }}
check-name: '(CD) publish dist / trading'
repo-token: ${{ secrets.GITHUB_TOKEN }}
wait-interval: 10
- name: resolve ipfs hashes for release
run: |
echo "Name: ${{ github.event.release.name }}"
echo "Description: ${{ github.event.release.body }}"
echo "Tag: ${{ github.event.release.tag_name }}"
commit="$(git rev-list -n 1 ${{ github.event.release.tag_name }})"
echo "Commit: $commit"
until docker pull vegaprotocol/trading:$commit; do
echo "Image not pushed yet, waiting 60 seconds"
sleep 60
done
docker run --rm vegaprotocol/trading:$commit cat /ipfs-hash > ipfs-hash
docker run --rm vegaprotocol/trading:mainnet cat /ipfs-hash > ipfs-hash
curl -L https://dist.ipfs.tech/kubo/v0.20.0/kubo_v0.20.0_linux-amd64.tar.gz -o kubo.tgz
tar -xzf kubo.tgz
export PATH="$PATH:$PWD/kubo"
+1 -1
View File
@@ -6,7 +6,7 @@ name: 'Add Issues To Project Board'
types:
- opened
env:
GH_TOKEN: ${{ secrets.GH_NEW_CARD_TO_PROJECT }}
GH_TOKEN: ${{ secrets.PROJECT_MANAGE_ACTION }}
PROJECT_ID: ${{ secrets.FRONT_END_PROJECT_ID }}
ISSUE_ID: ${{ github.event.issue.node_id }}
USER: ${{ github.actor }}
+30 -102
View File
@@ -5,10 +5,7 @@ on:
branches:
- release/*
- develop
- main
# uncomment pull_request and comment pull_request_target to test CI changes against feature branch not target branch (develop)
# pull_request:
pull_request_target:
pull_request:
types:
- opened
- ready_for_review
@@ -49,7 +46,7 @@ jobs:
lint-pr-title:
needs: node-modules
if: ${{ github.event_name == 'pull_request' || github.event_name == 'pull_request_target' }}
if: ${{ github.event_name == 'pull_request' }}
name: Verify PR title
uses: ./.github/workflows/lint-pr.yml
secrets: inherit
@@ -84,6 +81,22 @@ jobs:
with:
main-branch-name: develop
# See affected apps
- name: See affected apps
run: |
branch_slug="$(echo '${{ github.head_ref || github.ref_name }}' | sed -r s/[^a-zA-Z0-9]+/-/g | sed -r s/^-+\|-+$//g | cut -c 1-50 )"
python3 tools/ci/check-affected.py --github-ref="${{ github.ref }}" --branch-slug="$branch_slug" --event-name="${{ github.event_name }}"
- name: Verify script result
run: |
echo "Check outputs from script"
echo "projects: ${{ env.PROJECTS }}"
echo "projects-e2e: ${{ env.PROJECTS_E2E }}"
echo "preview_governance: ${{ env.PREVIEW_GOVERNANCE }}"
echo "preview_trading: ${{ env.PREVIEW_TRADING }}"
echo "preview_explorer: ${{ env.PREVIEW_EXPLORER }}"
echo "preview_tools: ${{ env.PREVIEW_TOOLS }}"
- name: Check formatting
run: yarn nx format:check
@@ -99,100 +112,6 @@ jobs:
- name: Build affected
run: yarn nx affected:build || (yarn install && yarn nx affected:build)
# See affected apps
- name: See affected apps
run: |
affected="$(yarn nx print-affected --base=${{ env.NX_BASE }} --head=${{ env.NX_HEAD }} --select=projects)"
branch_slug="$(echo '${{ github.head_ref || github.ref_name }}' | sed -r s/[^a-zA-Z0-9]+/-/g | sed -r s/^-+\|-+$//g | cut -c 1-50 )"
echo ">>>> debug"
echo "NX_BASE: ${{ env.NX_BASE }}"
echo "NX_HEAD: ${{ env.NX_HEAD }}"
echo "Affected: ${affected}"
echo "Branch slug: ${branch_slug}"
echo ">>>> eof debug"
projects_array=()
preview_governance="not deployed"
preview_trading="not deployed"
preview_explorer="not deployed"
preview_tools="not deployed"
# parse if affected is any of three main applications, if none - use all of them
if echo "$affected" | grep -q governance; then
echo "Governance is affected"
projects_array+=("governance")
preview_governance=$(printf "https://%s.%s.vega.rocks" "governance" "$branch_slug")
fi
if echo "$affected" | grep -q trading; then
echo "Trading is affected"
projects_array+=("trading")
preview_trading=$(printf "https://%s.%s.vega.rocks" "trading" "$branch_slug")
fi
if echo "$affected" | grep -q explorer; then
echo "Explorer is affected"
projects_array+=("explorer")
preview_explorer=$(printf "https://%s.%s.vega.rocks" "explorer" "$branch_slug")
fi
if [[ ${#projects_array[@]} -eq 0 ]]; then
projects_array=("governance" "trading" "explorer")
preview_governance=$(printf "https://%s.%s.vega.rocks" "governance" "$branch_slug")
preview_trading=$(printf "https://%s.%s.vega.rocks" "trading" "$branch_slug")
preview_explorer=$(printf "https://%s.%s.vega.rocks" "explorer" "$branch_slug")
fi
# applications parsed before this loop are applicable for running e2e-tests
projects_e2e_array=()
for project in "${projects_array[@]}"; do
projects_e2e_array+=("${project}-e2e")
done
# all applications below this loop are not applicable for running e2e-test
# check if pull request event to deploy tools
if [[ "${{ github.event_name }}" = "pull_request" ]]; then
if echo "$affected" | grep -q multisig-signer; then
echo "Tools are affected"
echo "Deploying tools on preview"
preview_tools=$(printf "https://%s.%s.vega.rocks" "tools" "$branch_slug")
projects_array+=("multisig-signer")
fi
# those apps deploy only from develop to mainnet
elif [[ "${{ github.ref }}" =~ .*develop$ ]]; then
if echo "$affected" | grep -q multisig-signer; then
echo "Tools are affected"
echo "Deploying tools on s3"
projects_array+=("multisig-signer")
fi
if echo "$affected" | grep -q static; then
echo "static is affected"
echo "Deploying static on s3"
projects_array+=("static")
fi
if echo "$affected" | grep -q ui-toolkit; then
echo "ui-toolkit is affected"
echo "Deploying ui-toolkit on s3"
projects_array+=("ui-toolkit")
fi
fi
echo "Projects: ${projects_array[@]}"
echo "Projects E2E: ${projects_e2e_array[@]}"
projects_json=$(jq -M --compact-output --null-input '$ARGS.positional' --args -- "${projects_array[@]}")
projects_e2e_json=$(jq -M --compact-output --null-input '$ARGS.positional' --args -- "${projects_e2e_array[@]}")
echo PROJECTS_E2E=$projects_e2e_json >> $GITHUB_ENV
echo PROJECTS=$projects_json >> $GITHUB_ENV
echo PREVIEW_GOVERNANCE=$preview_governance >> $GITHUB_ENV
echo PREVIEW_TRADING=$preview_trading >> $GITHUB_ENV
echo PREVIEW_EXPLORER=$preview_explorer >> $GITHUB_ENV
echo PREVIEW_TOOLS=$preview_tools >> $GITHUB_ENV
outputs:
projects: ${{ env.PROJECTS }}
projects-e2e: ${{ env.PROJECTS_E2E }}
@@ -201,6 +120,15 @@ jobs:
preview_explorer: ${{ env.PREVIEW_EXPLORER }}
preview_tools: ${{ env.PREVIEW_TOOLS }}
console-e2e:
needs: lint-test-build
name: '(CI) console python'
uses: ./.github/workflows/console-test-run.yml
secrets: inherit
if: ${{ contains(fromJSON(needs.lint-test-build.outputs.projects), 'trading') && github.event_name == 'pull_request' }}
with:
github-sha: ${{ github.event.pull_request.head.sha || github.sha }}
cypress:
needs: lint-test-build
name: '(CI) cypress'
@@ -214,7 +142,7 @@ jobs:
publish-dist:
needs: lint-test-build
name: '(CD) publish dist'
# if: ${{ needs.lint-test-build.outputs.projects != '[]' }}
if: ${{ (github.event_name == 'pull_request' && github.event.pull_request.head.repo.full_name == 'vegaprotocol/frontend-monorepo') || github.event_name == 'push' }}
uses: ./.github/workflows/publish-dist.yml
secrets: inherit
with:
@@ -225,7 +153,7 @@ jobs:
needs:
- publish-dist
- lint-test-build
if: ${{ github.event_name == 'pull_request' || github.event_name == 'pull_request_target' }}
if: ${{ github.event_name == 'pull_request' && github.event.pull_request.head.repo.full_name == 'vegaprotocol/frontend-monorepo' }}
timeout-minutes: 60
name: '(CD) comment preview links'
steps:
@@ -271,7 +199,7 @@ jobs:
with:
issue-number: ${{ github.event.pull_request.number }}
body: |
Previews:
Previews
* governance: ${{ needs.lint-test-build.outputs.preview_governance }}
* explorer: ${{ needs.lint-test-build.outputs.preview_explorer }}
* trading: ${{ needs.lint-test-build.outputs.preview_trading }}
+142
View File
@@ -0,0 +1,142 @@
name: (CI) Console tests
on:
workflow_call:
inputs:
github-sha:
required: true
type: string
jobs:
run-tests:
name: run-tests
runs-on: 8-cores
timeout-minutes: 20
steps:
#----------------------------------------------
# check-out frontend-monorepo
#----------------------------------------------
- name: Checkout console test repo
uses: actions/checkout@v3
with:
ref: ${{ inputs.github-sha }}
#----------------------------------------------
# cache node modules
#----------------------------------------------
- name: Cache node modules
id: cache
uses: actions/cache@v3
with:
path: node_modules
key: ${{ runner.os }}-cache-node-modules-${{ hashFiles('yarn.lock') }}
# comment out "restore-keys" if you need to rebuild yarn from 0
restore-keys: |
${{ runner.os }}-cache-node-modules-
#----------------------------------------------
# setup node
#----------------------------------------------
- name: Setup node
uses: actions/setup-node@v3
with:
node-version-file: '.nvmrc'
# https://stackoverflow.com/questions/61010294/how-to-cache-yarn-packages-in-github-actions
cache: yarn
#----------------------------------------------
# install deps if cache missing
#----------------------------------------------
- name: yarn install
if: steps.cache.outputs.cache-hit != 'true'
run: yarn install --pure-lockfile
#----------------------------------------------
# build trading
#----------------------------------------------
- name: Build affected spec
run: |
yarn env-cmd -f ./apps/trading/.env.stagnet1 yarn nx export trading
#----------------------------------------------
# run trading server
#----------------------------------------------
- name: Run trading server
run: |
docker run -d -p 80:4200 -v $PWD/docker/nginx.conf:/etc/nginx/conf.d/default.conf -v $PWD/dist/apps/trading/exported:/usr/share/nginx/html nginx:1.23-alpine@sha256:6318314189b40e73145a48060bff4783a116c34cc7241532d0d94198fb2c9629
sleep 5
docker ps
#----------------------------------------------
# check if container persists between runs
#----------------------------------------------
- name: Check server
run: |
docker ps
#----------------------------------------------
# check-out tests repo
#----------------------------------------------
- name: Checkout console test repo
uses: actions/checkout@v3
with:
repository: vegaprotocol/console-test
path: './console-test'
#----------------------------------------------
# set-up python
#----------------------------------------------
- name: Set up python
id: setup-python
uses: actions/setup-python@v4
with:
python-version: '3.10.11'
#----------------------------------------------
# ----- install & configure poetry -----
#----------------------------------------------
- name: Install Poetry
uses: snok/install-poetry@v1
with:
virtualenvs-create: true
virtualenvs-in-project: true
virtualenvs-path: console-test/.venv
#----------------------------------------------
# load cached venv if cache exists
#----------------------------------------------
- name: Load cached venv
id: cached-poetry-dependencies
uses: actions/cache@v3
with:
path: console-test/.venv
key: venv-${{ runner.os }}-${{ steps.setup-python.outputs.python-version }}-${{ hashFiles('**/poetry.lock') }}
#----------------------------------------------
# install dependencies if cache does not exist
#----------------------------------------------
- name: Install dependencies
working-directory: ./console-test
if: steps.cached-poetry-dependencies.outputs.cache-hit != 'true'
run: poetry install --no-interaction --no-root
#----------------------------------------------
# install vega binaries
#----------------------------------------------
- name: Install vega binaries
working-directory: ./console-test
run: poetry run python -m vega_sim.tools.load_binaries --force
#----------------------------------------------
# install playwright
#----------------------------------------------
- name: install playwright
run: poetry run playwright install
working-directory: ./console-test
#----------------------------------------------
# run tests
#----------------------------------------------
- name: Run tests
working-directory: ./console-test
run: poetry run pytest -s --numprocesses auto
- name: Check files
run: |
ls -al .
ls -al console-test
#----------------------------------------------
# upload traces
#----------------------------------------------
- name: Upload Playwright Trace
uses: actions/upload-artifact@v3
if: always()
with:
name: playwright-trace
path: ./traces/
retention-days: 15
+67 -63
View File
@@ -22,6 +22,45 @@ jobs:
with:
ref: ${{ github.event.pull_request.head.sha || github.sha }}
- name: Init variables
run: |
echo IS_PR=false >> $GITHUB_ENV
echo IS_MAINNET_RELEASE=false >> $GITHUB_ENV
echo IS_TESTNET_RELEASE=false >> $GITHUB_ENV
echo IS_IPFS_RELEASE=false >> $GITHUB_ENV
echo IS_S3_RELEASE=false >> $GITHUB_ENV
echo IS_DEV_IMAGE=false >> $GITHUB_ENV
- name: Is dev image
if: ${{ contains(github.ref, 'develop') && github.event_name == 'push' && matrix.app == 'trading' }}
run: |
echo IS_DEV_IMAGE=true >> $GITHUB_ENV
- name: Is PR
if: ${{ github.event_name == 'pull_request' }}
run: |
echo IS_PR=true >> $GITHUB_ENV
- name: Is mainnet release
if: ${{ contains(github.ref, 'release/mainnet') && !contains(github.ref, 'mirror') }}
run: |
echo IS_MAINNET_RELEASE=true >> $GITHUB_ENV
- name: Is testnet release
if: ${{ contains(github.ref, 'release/testnet') }}
run: |
echo IS_TESTNET_RELEASE=true >> $GITHUB_ENV
- name: Is IPFS Release
if: ${{ matrix.app == 'trading' && github.event_name == 'push' && ( env.IS_MAINNET_RELEASE == 'true' || env.IS_TESTNET_RELEASE == 'true' ) }}
run: |
echo IS_IPFS_RELEASE=true >> $GITHUB_ENV
- name: Is S3 Release
if: ${{ env.IS_IPFS_RELEASE == 'false' && github.event_name == 'push' }}
run: |
echo IS_S3_RELEASE=true >> $GITHUB_ENV
- name: Set up QEMU
id: quemu
uses: docker/setup-qemu-action@v2
@@ -33,7 +72,7 @@ jobs:
uses: docker/setup-buildx-action@v2
- name: Log in to the Container registry (ghcr)
if: ${{ github.event_name == 'pull_request' || github.event_name == 'pull_request_target' }}
if: ${{ env.IS_PR == 'true' }}
uses: docker/login-action@v2
with:
registry: ghcr.io
@@ -42,9 +81,8 @@ jobs:
- name: Log in to the Container registry (docker hub)
uses: docker/login-action@v2
if: ${{ matrix.app == 'trading' && github.event_name == 'push' && ( endsWith(github.ref, 'main') || endsWith(github.ref, 'release/testnet') ) }}
if: ${{ env.IS_IPFS_RELEASE == 'true' || env.IS_DEV_IMAGE == 'true' }}
with:
# registry: registry.hub.docker.com
username: ${{ secrets.DOCKERHUB_USERNAME }}
password: ${{ secrets.DOCKERHUB_TOKEN }}
@@ -65,51 +103,13 @@ jobs:
- name: Define dist variables
if: ${{ github.event_name == 'push' }}
run: |
envName=''
domain="vega.rocks"
bucketName=''
python3 tools/ci/define-dist-variables.py --github-ref="${{ github.ref }}" --app="${{ matrix.app }}"
if [[ "${{ github.ref }}" =~ .*release/.* ]]; then
envName="$(echo ${{ github.ref }} | rev | cut -d '/' -f 1 | rev)"
elif [[ "${{ github.ref }}" =~ .*develop$ ]]; then
envName="stagnet1"
if [[ "${{ matrix.app }}" = "multisig-signer" ]]; then
envName="mainnet"
bucketName="tools.vega.xyz"
fi
if [[ "${{ matrix.app }}" = "static" ]]; then
envName="mainnet"
bucketName="static.vega.xyz"
fi
if [[ "${{ matrix.app }}" = "ui-toolkit" ]]; then
envName="mainnet"
bucketName="ui.vega.rocks"
fi
elif [[ "${{ github.ref }}" =~ .*main$ ]]; then
envName="mainnet"
fi
if [[ "${envName}" = "mainnet" ]]; then
domain="vega.xyz"
if [[ -z "${bucketName}" ]]; then
bucketName="${{ matrix.app }}.${domain}"
fi
elif [[ "${envName}" = "testnet" ]]; then
domain="fairground.wtf"
if [[ -z "${bucketName}" ]]; then
bucketName="${{ matrix.app }}.${domain}"
fi
fi
if [[ -z "${bucketName}" ]]; then
bucketName="${{ matrix.app }}.${envName}.${domain}"
fi
echo "bucket name: ${bucketName}"
echo "env name: ${envName}"
echo BUCKET_NAME=${bucketName} >> $GITHUB_ENV
echo ENV_NAME=${envName} >> $GITHUB_ENV
- name: Verify script result
if: ${{ github.event_name == 'push' }}
run: |
echo "BUCKET_NAME=${{ env.BUCKET_NAME }}"
echo "ENV_NAME=${{ env.ENV_NAME }}"
- name: Build local dist
run: |
@@ -124,8 +124,12 @@ jobs:
elif [ "${{ matrix.app }}" = "ui-toolkit" ]; then
NODE_ENV=production yarn nx run ui-toolkit:build-storybook
DIST_LOCATION=dist/storybook/ui-toolkit
elif [ "${{ matrix.app }}" = "static" ]; then
yarn nx build static || (yarn install && yarn nx build static)
else
$envCmd yarn nx build ${{ matrix.app }} || (yarn install && $envCmd yarn nx build ${{ matrix.app }})
fi
if [[ -z "$DIST_LOCATION" ]]; then
DIST_LOCATION=dist/apps/${{ matrix.app }}
fi
mv $DIST_LOCATION dist-result
@@ -145,7 +149,7 @@ jobs:
ghcr.io/vegaprotocol/frontend/${{ matrix.app }}:local
- name: Image digest
if: ${{ github.event_name == 'pull_request' || github.event_name == 'pull_request_target' }}
if: ${{ env.IS_PR == 'true' }}
run: echo ${{ steps.docker_build.outputs.digest }}
- name: Sanity check docker image
@@ -160,7 +164,7 @@ jobs:
uses: docker/build-push-action@v3
continue-on-error: true
id: ghcr-push
if: ${{ github.event_name == 'pull_request' || github.event_name == 'pull_request_target' }}
if: ${{ env.IS_PR == 'true' }}
with:
context: .
file: docker/node-outside-docker.Dockerfile
@@ -175,7 +179,7 @@ jobs:
uses: docker/build-push-action@v3
continue-on-error: true
id: dockerhub-push
if: ${{ matrix.app == 'trading' && github.event_name == 'push' && ( endsWith(github.ref, 'main') || endsWith(github.ref, 'release/testnet') ) }}
if: ${{ env.IS_IPFS_RELEASE == 'true' || env.IS_DEV_IMAGE == 'true' }}
with:
context: .
file: docker/node-outside-docker.Dockerfile
@@ -185,7 +189,7 @@ jobs:
ENV_NAME=${{ env.ENV_NAME }}
tags: |
vegaprotocol/${{ matrix.app }}:${{ github.sha }}
vegaprotocol/${{ matrix.app }}:${{ endsWith(github.ref, 'main') && 'mainnet' || endsWith(github.ref, 'release/testnet') && 'testnet' || '' }}
vegaprotocol/${{ matrix.app }}:${{ env.IS_MAINNET_RELEASE == 'true' && 'mainnet' || env.IS_TESTNET_RELEASE == 'true' && 'testnet' || env.IS_DEV_IMAGE == 'true' && 'develop' || '' }}
- name: Publish dist as docker image (ghcr - retry)
uses: docker/build-push-action@v3
@@ -212,13 +216,13 @@ jobs:
ENV_NAME=${{ env.ENV_NAME }}
tags: |
vegaprotocol/${{ matrix.app }}:${{ github.sha }}
vegaprotocol/${{ matrix.app }}:${{ endsWith(github.ref, 'main') && 'mainnet' || endsWith(github.ref, 'release/testnet') && 'testnet' || '' }}
vegaprotocol/${{ matrix.app }}:${{ env.IS_MAINNET_RELEASE == 'true' && 'mainnet' || env.IS_TESTNET_RELEASE == 'true' && 'testnet' || '' }}
# bucket creation in github.com/vegaprotocol/terraform//frontend
- name: Publish dist to s3
uses: jakejarvis/s3-sync-action@master
# s3 releases are not happening for trading on mainnet - it's IPFS
if: ${{ github.event_name == 'push' && ( matrix.app != 'trading' || (matrix.app == 'trading' && !( endsWith(github.ref, 'main') || endsWith(github.ref, 'release/testnet') ) ) ) }}
if: ${{ env.IS_S3_RELEASE == 'true' }}
with:
args: --acl private --follow-symlinks --delete
env:
@@ -229,11 +233,11 @@ jobs:
SOURCE_DIR: 'dist-result'
- name: Install aws CLI
if: ${{ github.event_name == 'push' && ( matrix.app != 'trading' || (matrix.app == 'trading' && !( endsWith(github.ref, 'main') || endsWith(github.ref, 'release/testnet') ) ) ) }}
if: ${{ env.IS_S3_RELEASE == 'true' }}
uses: unfor19/install-aws-cli-action@master
- name: Perform cache invalidation
if: ${{ github.event_name == 'push' && ( matrix.app != 'trading' || (matrix.app == 'trading' && !( endsWith(github.ref, 'main') || endsWith(github.ref, 'release/testnet') ) ) ) }}
if: ${{ env.IS_S3_RELEASE == 'true' }}
env:
AWS_ACCESS_KEY_ID: ${{ secrets.AWS_ACCESS_KEY_ID }}
AWS_SECRET_ACCESS_KEY: ${{ secrets.AWS_SECRET_ACCESS_KEY }}
@@ -246,16 +250,16 @@ jobs:
- name: Add preview label
uses: actions-ecosystem/action-add-labels@v1
if: ${{ github.event_name == 'pull_request' || github.event_name == 'pull_request_target' }}
if: ${{ env.IS_PR == 'true' }}
with:
labels: ${{ matrix.app }}-preview
number: ${{ github.event.number }}
- name: Trigger fleek deployment
# release to ipfs happens only on mainnet (represented by main branch) for trading
if: ${{ matrix.app == 'trading' && github.event_name == 'push' && ( endsWith(github.ref, 'main') || endsWith(github.ref, 'release/testnet') ) }}
if: ${{ env.IS_IPFS_RELEASE == 'true' }}
run: |
if echo ${{ github.ref }} | grep -q main; then
if [[ "${{ env.IS_MAINNET_RELEASE }}" = "true" ]]; then
# display info about app
curl --fail -H "Authorization: ${{ secrets.FLEEK_API_KEY }}" \
-H "Content-Type: application/json" \
@@ -268,7 +272,7 @@ jobs:
-d '{"query": "mutation{triggerDeploy(siteId:\"f8f2e051-f18e-49e6-b876-0a39369dc0d8\"){id status}}"}' \
https://api.fleek.co/graphql
elif echo ${{ github.ref }} | grep -q release/testnet; then
elif [[ "${{ env.IS_TESTNET_RELEASE }}" = "true" ]]; then
# display info about app
curl --fail -H "Authorization: ${{ secrets.FLEEK_API_KEY }}" \
-H "Content-Type: application/json" \
@@ -283,7 +287,7 @@ jobs:
fi
- name: Check out ipfs-redirect
if: ${{ matrix.app == 'trading' && github.event_name == 'push' && ( endsWith(github.ref, 'main') || endsWith(github.ref, 'testnet') ) }}
if: ${{ env.IS_IPFS_RELEASE == 'true' }}
uses: actions/checkout@v3
with:
repository: 'vegaprotocol/ipfs-redirect'
@@ -292,7 +296,7 @@ jobs:
token: ${{ secrets.VEGA_CI_BOT_GITHUB_TOKEN }}
- name: Update interstitial page to point to the new console
if: ${{ matrix.app == 'trading' && github.event_name == 'push' && ( endsWith(github.ref, 'main') || endsWith(github.ref, 'testnet') ) }}
if: ${{ env.IS_IPFS_RELEASE == 'true' }}
env:
GH_TOKEN: ${{ secrets.VEGA_CI_BOT_GITHUB_TOKEN }}
run: |
@@ -314,11 +318,11 @@ jobs:
git config --global user.name "vega-ci-bot"
# update CID files
if echo ${{ github.ref }} | grep -q main; then
if [[ "${{ env.IS_MAINNET_RELEASE }}" = "true" ]]; then
echo $new_hash > cidv0-mainnet.txt
echo $new_cid > cidv1-mainnet.txt
git add cidv0-mainnet.txt cidv1-mainnet.txt
elif echo ${{ github.ref }} | grep -q release/testnet; then
elif [[ "${{ env.IS_TESTNET_RELEASE }}" = "true" ]]; then
echo $new_hash > cidv0-fairground.txt
echo $new_cid > cidv1-fairground.txt
git add cidv0-fairground.txt cidv1-fairground.txt
+6 -1
View File
@@ -16,5 +16,10 @@ NX_EXPLORER_NETWORK_PARAMETERS=1
NX_EXPLORER_PARTIES=1
NX_EXPLORER_VALIDATORS=1
CYPRESS_VEGA_WALLET_API_TOKEN=
CYPRESS_VEGA_URL=http://localhost:3008/graphql
CYPRESS_ETH_WALLET_MNEMONIC=ozone access unlock valid olympic save include omit supply green clown session
CYPRESS_ETHEREUM_PROVIDER_URL=http://localhost:8545
CYPRESS_FAUCET_URL=http://localhost:1790/api/v1/mint
CYPRESS_VEGA_PUBLIC_KEY=02eceaba4df2bef76ea10caf728d8a099a2aa846cced25737cccaa9812342f65
CYPRESS_VEGA_WALLET_URL=http://localhost:1789
CYPRESS_VEGA_WALLET_API_TOKEN=
+121 -10
View File
@@ -1,19 +1,130 @@
//Tests set to skip until market bug for capsule checkpoint is fixed
context.skip('Market page', { tags: '@regression' }, function () {
context('Market page', { tags: '@regression' }, function () {
describe('Verify elements on page', function () {
const marketHeaders = '[data-testid="markets-header"]';
const marketNavigation = 'a[href="/markets"]';
const marketHeaders = 'markets-heading';
const createdMarketId =
'2eab0e66545a789047561bc5a2e5cbc3b19eb708da41104e3cac2474ee36c4d4';
it('Markets page is displayed', function () {
before('Create market', function () {
cy.visit('/');
cy.get(marketNavigation).click();
cy.common_validate_blocks_data_displayed(marketHeaders);
cy.createMarket();
});
it('Markets page displayed on mobile', function () {
beforeEach('Get market id', function () {
cy.navigate_to('markets');
cy.get('[col-id="id"]').eq(1).invoke('text').as('createdMarketId');
});
it('Market displayed on market page', function () {
cy.navigate_to('markets');
cy.getByTestId(marketHeaders).should('be.visible');
cy.get(`[row-id="${this.createdMarketId}"]`)
.should('be.visible')
.within(() => {
cy.get_element_by_col_id('code').should('have.text', 'TEST.24h');
cy.get_element_by_col_id('name').should('have.text', 'Test market 1');
cy.get_element_by_col_id('state').should('have.text', 'Pending');
cy.get_element_by_col_id('asset').should('have.text', 'fUSDC');
cy.get_element_by_col_id('id').should(
'have.text',
this.createdMarketId
);
cy.get_element_by_col_id('actions')
.find('a')
.should('have.attr', 'href', `/markets/${this.createdMarketId}`);
});
});
it('Able to go to market details page', function () {
cy.navigate_to('markets');
cy.get_element_by_col_id('actions').eq(1).click();
cy.getByTestId(marketHeaders).should('have.text', 'Test market 1');
cy.validate_element_from_table('Name', 'Test market 1');
cy.validate_element_from_table('Market ID', this.createdMarketId);
cy.validate_element_from_table('Trading Mode', 'Opening auction');
cy.validate_element_from_table('Market Decimal Places', '5');
cy.validate_element_from_table('Position Decimal Places', '5');
cy.validate_element_from_table('Settlement Asset Decimal Places', '5');
// Instrument
cy.validate_element_from_table('Market Name', 'Test market 1');
cy.validate_element_from_table('Code', 'TEST.24h');
cy.validate_element_from_table('Product Type', 'Future');
cy.validate_element_from_table('Quote Name', 'fUSDC');
// Settlement Asset
cy.validate_element_from_table('Quote Name', 'fUSDC');
cy.validate_element_from_table('Symbol', 'fUSDC');
cy.validate_element_from_table('Decimals', '5');
cy.validate_element_from_table('Quantum', '0.00');
cy.validate_element_from_table('Status', 'Enabled');
cy.validate_element_from_table('Max faucet amount', '10,000,000.00');
cy.validate_element_from_table(
'Infrastructure fee account balance',
'0.00'
);
cy.validate_element_from_table(
'Global reward pool account balance',
'0.00'
);
// Metadata
cy.validate_element_from_table('Sector', 'tech');
cy.validate_element_from_table('Source', 'docs.vega.xyz');
// Risk model
cy.validate_element_from_table('Tau', '0.0001140771161');
cy.validate_element_from_table('Risk Aversion Parameter', '0.01');
// Risk parameters
// cy.validate_element_from_table('R', '0.016')
cy.validate_element_from_table('Sigma', '0.5');
// Risk factors
cy.validate_element_from_table('Short', '0.0143218738374871');
cy.validate_element_from_table('Long', '0.0141450471498822');
// Price monitoring settings 1
cy.validate_element_from_table('Horizon Secs', '43,200');
cy.validate_element_from_table('Probability', '1');
cy.validate_element_from_table('Auction Extension Secs', '600');
// Liquidity Monitoring
cy.validate_element_from_table('Triggering Ratio', '0.7');
cy.validate_element_from_table('Time Window', '3,600');
cy.validate_element_from_table('Scaling Factor', '10');
// Liquidity
cy.validate_element_from_table('Target Stake', '0.00 fUSDC');
cy.validate_element_from_table('Supplied Stake', '0.00 fUSDC');
cy.validate_element_from_table('Market Value Proxy', '0.00 fUSDC');
// Liquidity price range
cy.validate_element_from_table(
'Liquidity Price Range',
'1,000.00% of mid price'
);
cy.validate_element_from_table('Lowest Price', '0.00 fUSDC');
cy.validate_element_from_table('Highest Price', '0.00 fUSDC');
cy.getByTestId('oracle-spec-links')
.should('have.attr', 'href')
.and(
'contain',
'/oracles/bf242aa5c9f64fcbb77808aa8582e73711519f4b35264eb797a80f1803590a24'
);
// Able to view Json
cy.contains('View JSON').click();
cy.get('.language-json').should('exist');
});
// Skipping due to resize observer loop limit error
it.skip('Markets page displayed on mobile', function () {
cy.common_switch_to_mobile_and_click_toggle();
cy.get(marketNavigation).click();
cy.common_validate_blocks_data_displayed(marketHeaders);
cy.navigate_to('markets', true);
cy.getByTestId(marketHeaders).should('be.visible');
cy.get(`[row-id="${createdMarketId}"]`)
.should('be.visible')
.within(() => {
cy.get_element_by_col_id('code').should('have.text', 'TEST.24h');
cy.get_element_by_col_id('name').should('have.text', 'Test market 1');
cy.get_element_by_col_id('state').should('have.text', 'Pending');
cy.get_element_by_col_id('asset').should('have.text', 'fUSDC');
cy.get_element_by_col_id('id').should('have.text', createdMarketId);
cy.get_element_by_col_id('actions')
.find('a')
.should('have.attr', 'href', `/markets/${createdMarketId}`);
});
});
});
});
@@ -0,0 +1,46 @@
context('Proposal page', { tags: '@smoke' }, function () {
describe('Verify elements on page', function () {
const proposalHeading = 'proposals-heading';
const dateTimeRegex =
/(\d{1,2})\/(\d{1,2})\/(\d{4}), (\d{1,2}):(\d{1,2}):(\d{1,2})/gm;
const proposalTitle = 'Add Lorem Ipsum market';
before('Create market proposal', function () {
cy.visit('/');
cy.createMarket();
});
it('Able to view proposal', function () {
cy.navigate_to('governanceProposals');
cy.getByTestId(proposalHeading).should('be.visible');
// get first proposal in list
cy.get('[row-index="0"]').within(() => {
cy.get_element_by_col_id('title').should('have.text', proposalTitle);
cy.get_element_by_col_id('type').should('have.text', 'NewMarket');
cy.get_element_by_col_id('state').should('have.text', 'Enacted');
cy.getByTestId('vote-progress').should('be.visible');
cy.get('[col-id="cDate"]')
.invoke('text')
.should('match', dateTimeRegex);
cy.get('[col-id="eDate"]')
.invoke('text')
.should('match', dateTimeRegex);
cy.getByTestId('external-link')
.should('have.attr', 'href')
.and('contains', 'https://governance.fairground.wtf/proposals/');
cy.contains('View terms').should('exist').click();
});
cy.getByTestId('dialog-title').should('have.text', proposalTitle);
cy.get('.language-json').should('exist');
});
it('Proposal page displayed on mobile', function () {
cy.common_switch_to_mobile_and_click_toggle();
cy.navigate_to('governanceProposals', true);
cy.getByTestId(proposalHeading).should('be.visible');
cy.get('[row-index="0"]').within(() => {
cy.get_element_by_col_id('title').should('have.text', proposalTitle);
});
});
});
});
@@ -40,7 +40,7 @@ context.skip('Transactions page', function () {
.first()
.click({ force: true });
} else {
cy.slack('Unable to find any transactions on page');
cy.log('Unable to find any transactions on page');
cy.screenshot();
}
});
@@ -78,7 +78,7 @@ context.skip('Transactions page', function () {
}
});
} else {
cy.slack('Unable to find any transactions on page');
cy.log('Unable to find any transactions on page');
cy.screenshot();
}
});
@@ -7,7 +7,11 @@ context('Validator page', { tags: '@smoke' }, function () {
it('should be able to see validator tiles', function () {
cy.getNodes().then((nodes) => {
nodes.forEach((node) => {
cy.get(`[validator-id="${node.id}"]`).should('be.visible');
if (node.rankingScore.performanceScore > 0) {
cy.get(`[validator-id="${node.id}"]`).should('be.visible');
} else {
cy.get(`[validator-id="${node.id}"]`).should('not.exist');
}
});
});
});
@@ -28,7 +28,7 @@ Cypress.Commands.add('switchToMobile', () => {
Cypress.Commands.add('common_switch_to_mobile_and_click_toggle', function () {
cy.viewport('iphone-x');
cy.visit('/');
cy.get('[data-testid="open-menu"]').click();
cy.get('[data-testid="button-menu-drawer"]').click();
});
Cypress.Commands.add('monitor_clipboard', () => {
@@ -88,3 +88,42 @@ Cypress.Commands.add('convert_number_to_max_four_decimal', (number) => {
maximumFractionDigits: 4,
});
});
Cypress.Commands.add('navigate_to', (page, mobileView = false) => {
const navigation = {
transactions: '/txs',
blocks: '/blocks',
oracles: '/oracles',
validators: '/validators',
parties: '/parties',
assets: '/assets',
markets: '/markets',
governanceProposals: '/governance',
networkParameters: '/network-parameters',
genesisParameters: '/genesis',
};
const topLevelRoutes = ['transactions', 'blocks', 'oracles', 'validators'];
cy.getByTestId('navigation').within(() => {
if (!topLevelRoutes.includes(page) && mobileView === false) {
cy.getByTestId('other').first().click();
}
cy.get(`[href="${navigation[page]}"]`).first().click();
});
cy.url().should('include', navigation[page]);
});
Cypress.Commands.add('get_element_by_col_id', (elementName) => {
cy.get(`[col-id="${elementName}"]`);
});
Cypress.Commands.add(
'validate_element_from_table',
(tableRowName, tableRowValue) => {
cy.contains(tableRowName)
.parentsUntil("[data-testid='key-value-table-row']")
.siblings()
.should('have.text', tableRowValue);
}
);
+1 -1
View File
@@ -4,7 +4,7 @@ NX_TENDERMINT_WEBSOCKET_URL=wss://be.mainnet-mirror.vega.rocks/websocket
NX_SENTRY_DSN=https://4b8c8a8ba07742648aa4dfe1b8d17e40@o286262.ingest.sentry.io/5882996
NX_VEGA_CONFIG_URL=https://raw.githubusercontent.com/vegaprotocol/networks-internal/main/mainnet-mirror/vegawallet-mainnet-mirror.toml
NX_VEGA_URL=https://api.mainnet-mirror.vega.rocks/graphql
NX_VEGA_ENV=MAINNET-MIRROR
NX_VEGA_ENV=MAINNET_MIRROR
NX_BLOCK_EXPLORER=https://be.mainnet-mirror.vega.rocks/rest
NX_ETHERSCAN_URL=https://sepolia.etherscan.io
NX_VEGA_GOVERNANCE_URL=https://governance.mainnet-mirror.vega.rocks
@@ -23,7 +23,7 @@ export const Footer = () => {
);
return (
<footer className="grid grid-rows-2 lg:grid-cols-[1fr_auto] text-xs md:text-md lg:flex md:col-span-2 px-4 py-2 gap-4 border-t border-vega-light-200 dark:border-vega-dark-200">
<footer className="grid grid-cols-[1fr_auto] items-center text-xs md:text-md lg:flex md:col-span-2 px-4 pt-2 pb-3 gap-4 border-t border-vega-light-200 dark:border-vega-dark-200">
<div className="flex justify-between gap-2 align-middle">
{GIT_COMMIT_HASH && (
<div className="content-center flex border-r border-neutral-700 dark:border-neutral-300 pr-4">
@@ -43,9 +43,12 @@ export const Footer = () => {
</div>
)}
<div className="content-center flex pl-2 md:border-r border-neutral-700 dark:border-neutral-300 pr-4">
{VEGA_URL && <NodeUrl url={VEGA_URL} />}
<Link className="ml-2" onClick={() => setNodeSwitcherOpen(true)}>
<div className="content-center flex pr-4 md:border-r border-neutral-700 dark:border-neutral-300">
<span className="pr-2">{VEGA_URL && <NodeUrl url={VEGA_URL} />}</span>
<Link
className="ml-2 underline-offset-4"
onClick={() => setNodeSwitcherOpen(true)}
>
{t('Change')}
</Link>
</div>
@@ -59,7 +62,10 @@ export const Footer = () => {
) : null}
</div>
<div className="pl-2 align-center lg:align-right lg:flex lg:justify-end gap-2 align-middle lg:max-w-xs lg:ml-auto">
<RouteLink to={`/${Routes.DISCLAIMER}`} className="underline">
<RouteLink
to={`/${Routes.DISCLAIMER}`}
className="underline underline-offset-4"
>
Disclaimer
</RouteLink>
</div>
@@ -95,7 +95,10 @@ export const Header = () => {
{mainItems.map(routeToNavigationItem)}
{groupedItems && groupedItems.length > 0 && (
<NavigationItem>
<NavigationTrigger isActive={Boolean(isOnOther)}>
<NavigationTrigger
isActive={Boolean(isOnOther)}
data-testid="other"
>
{t('Other')}
</NavigationTrigger>
<NavigationContent>
@@ -1,6 +1,9 @@
import { t } from '@vegaprotocol/i18n';
import type { MarketInfoWithData } from '@vegaprotocol/markets';
import { PriceMonitoringBoundsInfoPanel } from '@vegaprotocol/markets';
import {
PriceMonitoringBoundsInfoPanel,
SuccessionLineInfoPanel,
} from '@vegaprotocol/markets';
import {
LiquidityInfoPanel,
LiquidityMonitoringParametersInfoPanel,
@@ -103,6 +106,8 @@ export const MarketDetails = ({ market }: { market: MarketInfoWithData }) => {
<OracleInfoPanel market={market} type="settlementData" />
</>
)}
<h2 className={`${headerClassName} mb-4`}>{t('Succession line')}</h2>
<SuccessionLineInfoPanel market={market} />
</div>
);
};
@@ -137,7 +137,7 @@ export const ProposalsTable = ({ data }: ProposalsTableProps) => {
hide: window.innerWidth <= BREAKPOINT_MD,
headerName: t('Enactment date'),
field: 'terms.enactmentDatetime',
valueFormatte: ({
valueFormatter: ({
value,
}: VegaValueFormatterParams<
ProposalListFieldsFragment,
@@ -0,0 +1,52 @@
import { t } from '@vegaprotocol/i18n';
import type { components } from '../../../../../types/explorer';
import { Tooltip } from '@vegaprotocol/ui-toolkit';
export interface TxDetailsOrderIcebergDetailsProps {
iceberg: components['schemas']['v1IcebergOpts'];
size: components['schemas']['v1OrderSubmission']['size'];
}
/**
.iceberg .sub {
vertical-align: bottom;
color: #954F01;
}
.iceberg .sup {
vertical-align: top;
color: #515E1E;
}
*/
/**
* Visualises the iceberg details of an order, showing the minimum visible size,
* the full size and the peak size.
*/
export const TxOrderIcebergDetails = ({
iceberg,
size,
}: TxDetailsOrderIcebergDetailsProps) => {
return (
<div
className="inline-block iceberg bg-vega-blue-300 border-vega-blue-350 border-[1px] text-[70%] font-mono py-[2px] pl-2 pr-3 height-[1em] leading-[1em] cursor-pointer"
style={{ clipPath: 'polygon(10% 0%, 100% 0%, 90% 100%, 0% 100%)' }}
>
<Tooltip description={t('Iceberg: Minimum visible size')}>
<span className="align-bottom text-vega-orange-650">
{iceberg.minimumVisibleSize || '-'}
</span>
</Tooltip>
<Tooltip description={t('Iceberg: Total size')}>
<span className="text-sm text-vega-blue-600 mx-3">{size}</span>
</Tooltip>
<Tooltip description={t('Iceberg: Visible peak')}>
<span className="align-top text-vega-yellow-600">
{iceberg.peakSize || '-'}
</span>
</Tooltip>
</div>
);
};
@@ -8,6 +8,7 @@ import { txSignatureToDeterministicId } from '../lib/deterministic-ids';
import DeterministicOrderDetails from '../../order-details/deterministic-order-details';
import Hash from '../../links/hash';
import { TxOrderPeggedReferenceRow } from './order/tx-order-peg';
import { TxOrderIcebergDetails } from './order/tx-order-iceberg';
interface TxDetailsOrderProps {
txData: BlockExplorerTransactionResult | undefined;
@@ -32,6 +33,8 @@ export const TxDetailsOrder = ({
const marketId = txData.command.orderSubmission.marketId || '-';
const reference = txData.command.orderSubmission.peggedOrder;
const side = txData.command.orderSubmission.side;
const iceberg = txData.command.orderSubmission.icebergOpts;
const size = txData.command.orderSubmission.size;
let deterministicId = '';
@@ -74,6 +77,14 @@ export const TxDetailsOrder = ({
marketId={marketId}
/>
) : null}
{iceberg ? (
<TableRow modifier="bordered">
<TableCell>{t('Iceberg details')}</TableCell>
<TableCell>
<TxOrderIcebergDetails iceberg={iceberg} size={size} />
</TableCell>
</TableRow>
) : null}
</TableWithTbody>
{deterministicId.length > 0 ? (
@@ -10,6 +10,8 @@ import Hash from '../../links/hash';
import { t } from '@vegaprotocol/i18n';
import { ProposalSignatureBundleNewAsset } from './proposal/signature-bundle-new';
import { ProposalSignatureBundleUpdateAsset } from './proposal/signature-bundle-update';
import { MarketLink } from '../../links';
import { formatNumber } from '@vegaprotocol/utils';
export type Proposal = components['schemas']['v1ProposalSubmission'];
export type ProposalTerms = components['schemas']['vegaProposalTerms'];
@@ -53,7 +55,11 @@ export function proposalTypeLabel(terms?: ProposalTerms): string {
} else if (has(terms, 'updateAsset')) {
return t('Update asset proposal');
} else if (has(terms, 'newMarket')) {
return t('New market proposal');
if (terms?.newMarket?.changes?.successor) {
return t('Successor market proposal');
} else {
return t('New market proposal');
}
} else if (has(terms, 'updateMarket')) {
return t('Update market proposal');
} else if (has(terms, 'updateNetworkParameter')) {
@@ -85,6 +91,13 @@ export const TxProposal = ({ txData, pubKey, blockData }: TxProposalProps) => {
}
const tx = proposal.terms?.newAsset || proposal.terms?.updateAsset;
const isSuccessorMarketProposal =
proposal?.terms?.newMarket?.changes?.successor;
const parentMarketId =
isSuccessorMarketProposal &&
proposal?.terms.newMarket?.changes?.successor?.parentMarketId;
const insurancePoolFraction =
proposal?.terms?.newMarket?.changes?.successor?.insurancePoolFraction;
// This component is not rendered if no bundle is required
const SignatureBundleComponent = proposal.terms?.newAsset
@@ -111,6 +124,30 @@ export const TxProposal = ({ txData, pubKey, blockData }: TxProposalProps) => {
<Hash text={deterministicId} />
</TableCell>
</TableRow>
{isSuccessorMarketProposal ? (
<>
{parentMarketId ? (
<TableRow modifier="bordered">
<TableCell>{t('Previous market')}</TableCell>
<TableCell>
<MarketLink
id={
proposal.terms?.newMarket.changes.successor.parentMarketId
}
/>
</TableCell>
</TableRow>
) : null}
{insurancePoolFraction ? (
<TableRow modifier="bordered">
<TableCell>{t('Insurance pool fraction')}</TableCell>
<TableCell>
{formatNumber(Number(insurancePoolFraction) * 100, 0)}%
</TableCell>
</TableRow>
) : null}
</>
) : null}
</TableWithTbody>
<ProposalSummary
id={deterministicId}
@@ -10,7 +10,6 @@ import {
DropdownMenuTrigger,
DropdownMenuSubContent,
Icon,
Button,
} from '@vegaprotocol/ui-toolkit';
import type { Dispatch, SetStateAction } from 'react';
import { FilterLabel } from './tx-filter-label';
@@ -100,15 +99,13 @@ export const TxsFilter = ({ filters, setFilters }: TxFilterProps) => {
<DropdownMenu
modal={false}
trigger={
<DropdownMenuTrigger className="ml-0">
<Button size="xs" data-testid="filter-trigger">
<FilterLabel filters={filters} />
</Button>
<DropdownMenuTrigger>
<FilterLabel filters={filters} />
</DropdownMenuTrigger>
}
>
<DropdownMenuContent>
{filters.size > 0 ? null : (
{filters.size > 1 ? null : (
<>
<DropdownMenuCheckboxItem
onCheckedChange={() => setFilters(new Set(AllFilterOptions))}
@@ -44,7 +44,7 @@ export const TxsListNavigation = ({
</Button>
<Button
size="xs"
disabled={!hasMoreTxs || loading}
disabled={!hasMoreTxs}
onClick={() => {
nextPage();
}}
@@ -78,7 +78,11 @@ export function getLabelForProposal(
} else if (proposal.terms?.updateAsset) {
return t('Proposal: Update asset');
} else if (proposal.terms?.newMarket) {
return t('Proposal: New market');
if (proposal.terms?.newMarket.changes?.successor) {
return t('Proposal: Successor market');
} else {
return t('Proposal: New market');
}
} else if (proposal.terms?.updateMarket) {
return t('Proposal: Update market');
} else if (proposal.terms?.updateNetworkParameter) {
@@ -166,6 +170,7 @@ export const TxOrderType = ({ orderType, command }: TxOrderTypeProps) => {
'text-white dark:text-white bg-vega-dark-150 dark:bg-vega-dark-250';
// This will get unwieldy and should probably produce a different colour of tag
// Note that colours are currently arbitrary
if (type === 'Chain Event' && !!command?.chainEvent) {
type = getLabelForChainEvent(command.chainEvent);
colours = 'text-white dark-text-white bg-vega-pink dark:bg-vega-pink';
@@ -177,6 +182,9 @@ export const TxOrderType = ({ orderType, command }: TxOrderTypeProps) => {
type = getLabelForProposal(command.proposalSubmission);
}
colours = 'text-black bg-vega-yellow';
} else if (type === 'Order' && command) {
type = getLabelForOrderType(orderType, command);
colours = 'text-white dark-text-white bg-vega-blue dark:bg-vega-blue';
}
if (type === 'Vote on Proposal') {
@@ -86,14 +86,18 @@ describe('Txs infinite list item', () => {
render(
<MockedProvider>
<MemoryRouter>
<TxsInfiniteListItem
type="testType"
submitter="testPubKey"
hash="testTxHash"
block="1"
code={0}
command={{}}
/>
<table>
<tbody>
<TxsInfiniteListItem
type="testType"
submitter="testPubKey"
hash="testTxHash"
block="1"
code={0}
command={{}}
/>
</tbody>
</table>
</MemoryRouter>
</MockedProvider>
);
@@ -14,9 +14,9 @@ const DEFAULT_TRUNCATE_LENGTH = 7;
export function getIdTruncateLength(screen: Screen): number {
if (['xxxl', 'xxl'].includes(screen)) {
return 64;
} else if (['xl', 'lg', 'md'].includes(screen)) {
return 32;
} else if (['xl', 'lg', 'md'].includes(screen)) {
return 16;
}
return DEFAULT_TRUNCATE_LENGTH;
}
@@ -5,11 +5,17 @@ import type { BlockExplorerTransactionResult } from '../../routes/types/block-ex
import { Side } from '@vegaprotocol/types';
import { MockedProvider } from '@apollo/client/testing';
const generateHash = (): string =>
Array.from(
{ length: 64 },
() => '0123456789ABCDEF'[Math.floor(Math.random() * 16)]
).join('');
const generateTxs = (number: number): BlockExplorerTransactionResult[] => {
return Array.from(Array(number)).map((_) => ({
block: '87901',
index: 2,
hash: '0F8B98DA0923A50786B852D9CA11E051CACC4C733E1DB93D535C7D81DBD10F6F',
hash: generateHash(),
submitter:
'4b782482f587d291e8614219eb9a5ee9280fa2c58982dee71d976782a9be1964',
type: 'Submit Order',
@@ -2,7 +2,7 @@ import { Table, TableRow } from '../table';
import { t } from '@vegaprotocol/i18n';
import { useFetch } from '@vegaprotocol/react-helpers';
import type { BlockExplorerTransactions } from '../../routes/types/block-explorer-response';
import { getTxsDataUrl } from '../../hooks/use-txs-data';
import { getTxsDataUrl } from '../../hooks/get-txs-data-url';
import { AsyncRenderer, Loader } from '@vegaprotocol/ui-toolkit';
import EmptyList from '../empty-list/empty-list';
import { TxsInfiniteListItem } from './txs-infinite-list-item';
@@ -14,7 +14,7 @@ interface TxsPerBlockProps {
export const TxsPerBlock = ({ blockHeight, txCount }: TxsPerBlockProps) => {
const filters = `filters[block.height]=${blockHeight}`;
const url = getTxsDataUrl({ limit: txCount.toString(), filters });
const url = getTxsDataUrl({ filters, count: txCount });
const {
state: { data, loading, error },
} = useFetch<BlockExplorerTransactions>(url);
-15
View File
@@ -5,8 +5,6 @@ const windowOrDefault = (key: string) => {
return (process.env[key] as string) || '';
};
const truthy = ['1', 'true'];
export const ENV = {
// Data sources
// Environment
@@ -20,19 +18,6 @@ export const ENV = {
governanceUrl: windowOrDefault('NX_VEGA_GOVERNANCE_URL'),
vegaRepoUrl: windowOrDefault('NX_VEGA_REPO_URL'),
},
flags: {
assets: truthy.includes(windowOrDefault('NX_EXPLORER_ASSETS')),
genesis: truthy.includes(windowOrDefault('NX_EXPLORER_GENESIS')),
governance: truthy.includes(windowOrDefault('NX_EXPLORER_GOVERNANCE')),
markets: truthy.includes(windowOrDefault('NX_EXPLORER_MARKETS')),
oracles: truthy.includes(windowOrDefault('NX_EXPLORER_ORACLES')),
txsList: truthy.includes(windowOrDefault('NX_EXPLORER_TXS_LIST')),
networkParameters: truthy.includes(
windowOrDefault('NX_EXPLORER_NETWORK_PARAMETERS')
),
parties: truthy.includes(windowOrDefault('NX_EXPLORER_PARTIES')),
validators: truthy.includes(windowOrDefault('NX_EXPLORER_VALIDATORS')),
},
addresses: {
feedback: windowOrDefault('NX_GITHUB_FEEDBACK_URL'),
},
-5
View File
@@ -1,5 +0,0 @@
import { ENV } from './env';
export default {
...ENV.flags,
};
@@ -0,0 +1,59 @@
import { DATA_SOURCES } from '../config';
type IGetTxsDataFirstPage = {
baseUrl?: string;
count?: number;
party?: string;
filters?: string;
};
interface IGetTxsDataPrevious extends IGetTxsDataFirstPage {
before: string;
}
interface IGetTxsDataNext extends IGetTxsDataFirstPage {
after: string;
}
type IGetTxsDataUrl =
| IGetTxsDataPrevious
| IGetTxsDataNext
| IGetTxsDataFirstPage;
export const BE_TXS_PER_REQUEST = 25;
/**
* Properly encodes the filters and parameters for a request to the block explorer
* API for transactions. As the API uses a slightly less common format for encoding
* filters, some of it is more manual than you might expect.
*
* @param params An object containing the pagination and filters
* @returns string URL to call
*/
export const getTxsDataUrl = (params: IGetTxsDataUrl) => {
const baseUrl =
params.baseUrl || `${DATA_SOURCES.blockExplorerUrl}/transactions`;
const url = new URL(baseUrl);
const count = `${params.count || BE_TXS_PER_REQUEST}`;
if ('before' in params && params.before?.length > 0) {
url.searchParams.append('last', count);
url.searchParams.append('before', params.before);
} else if ('after' in params && params.after?.length > 0) {
url.searchParams.append('first', count);
url.searchParams.append('after', params.after);
} else {
url.searchParams.append('first', count);
}
// Hacky fix for param as array
let urlAsString = url.toString();
if (params.filters && params.filters?.length > 0) {
urlAsString += '&' + params.filters.replaceAll(' ', '%20');
}
if (params.party && params.party?.length > 0) {
urlAsString += `&filters[tx.submitter]=${params.party}`;
}
return urlAsString;
};
@@ -0,0 +1,48 @@
import { getTxsDataUrl } from './get-txs-data-url'; // import the function to be tested
describe('getTxsDataUrl', () => {
it('should return the correct URL without filters and party', () => {
const params = {
count: 10,
baseUrl: 'https://example.com/transactions',
};
const expectedUrl = 'https://example.com/transactions?first=10';
expect(getTxsDataUrl(params)).toEqual(expectedUrl);
});
it('should return the correct URL with "before" in params', () => {
const params = {
count: 5,
before: '100.1',
baseUrl: 'https://example.com/transactions',
};
const expectedUrl = 'https://example.com/transactions?last=5&before=100.1';
expect(getTxsDataUrl(params)).toEqual(expectedUrl);
});
it('should return the correct URL with "after" in params', () => {
const params = {
count: 5,
after: '222.1',
baseUrl: 'https://example.com/transactions',
};
const expectedUrl = 'https://example.com/transactions?first=5&after=222.1';
expect(getTxsDataUrl(params)).toEqual(expectedUrl);
});
it('should return the correct URL with filters and party', () => {
const params = {
count: 10,
filters: 'filters[cmd.type]=Made Up Transaction',
party: '1234',
baseUrl: 'https://example.com/transactions',
};
const expectedUrl =
'https://example.com/transactions?first=10&filters[cmd.type]=Made%20Up%20Transaction&filters[tx.submitter]=1234';
expect(getTxsDataUrl(params)).toEqual(expectedUrl);
});
});
+103 -92
View File
@@ -1,130 +1,141 @@
import { useCallback, useEffect, useState } from 'react';
import { useSearchParams } from 'react-router-dom';
import type { URLSearchParamsInit } from 'react-router-dom';
import { useCallback } from 'react';
import { useFetch } from '@vegaprotocol/react-helpers';
import type {
BlockExplorerTransactionResult,
BlockExplorerTransactions,
} from '../routes/types/block-explorer-response';
import { DATA_SOURCES } from '../config';
import isNumber from 'lodash/isNumber';
import { AllFilterOptions } from '../components/txs/tx-filter';
import type { FilterOption } from '../components/txs/tx-filter';
import { BE_TXS_PER_REQUEST, getTxsDataUrl } from './get-txs-data-url';
export interface TxsStateProps {
txsData: BlockExplorerTransactionResult[];
hasMoreTxs: boolean;
cursor: string;
previousCursors: string[];
hasPreviousPage: boolean;
export function getTypeFilters(filters?: Set<FilterOption>) {
if (!filters) {
return '';
} else if (filters.size > 1) {
return '';
}
const forcedSingleFilter = Array.from(filters)[0];
return `filters[cmd.type]=${forcedSingleFilter}`;
}
export interface IUseTxsData {
limit: number;
filters?: string;
count?: number;
before?: string;
after?: string;
party?: string;
filters?: Set<FilterOption>;
}
interface IGetTxsDataUrl {
limit: string;
filters?: string;
}
export const useTxsData = ({
count = 25,
before,
after,
filters,
party,
}: IUseTxsData) => {
const [, setSearchParams] = useSearchParams();
let hasMoreTxs = true;
let txsData: BlockExplorerTransactionResult[] = [];
export const getTxsDataUrl = ({ limit, filters }: IGetTxsDataUrl) => {
const url = new URL(`${DATA_SOURCES.blockExplorerUrl}/transactions`);
if (limit) {
url.searchParams.append('limit', limit);
}
// Hacky fix for param as array
let urlAsString = url.toString();
if (filters) {
urlAsString += '&' + filters.replace(' ', '%20');
}
return urlAsString;
};
export const useTxsData = ({ limit, filters }: IUseTxsData) => {
const [
{ txsData, hasMoreTxs, cursor, previousCursors, hasPreviousPage },
setTxsState,
] = useState<TxsStateProps>({
txsData: [],
hasMoreTxs: false,
previousCursors: [],
cursor: '',
hasPreviousPage: false,
const url = getTxsDataUrl({
filters: getTypeFilters(filters),
count,
before,
after,
party,
});
const url = getTxsDataUrl({ limit: limit.toString(), filters });
const {
state: { data, error, loading },
refetch,
} = useFetch<BlockExplorerTransactions>(url, {}, true);
useEffect(() => {
if (!loading && data && isNumber(data.transactions.length)) {
setTxsState((prev) => {
return {
...prev,
txsData: data.transactions,
hasMoreTxs: data.transactions.length >= limit,
cursor: data?.transactions.at(-1)?.cursor || '',
};
});
}
}, [loading, setTxsState, data, limit]);
if (!loading && data && isNumber(data.transactions.length)) {
hasMoreTxs = data.transactions.length >= count;
txsData = data.transactions;
}
const nextPage = useCallback(() => {
const c = data?.transactions.at(0)?.cursor;
const newPreviousCursors = c ? [...previousCursors, c] : previousCursors;
setTxsState((prev) => ({
...prev,
hasPreviousPage: true,
previousCursors: newPreviousCursors,
}));
return refetch({
limit,
before: cursor,
});
}, [data, previousCursors, cursor, limit, refetch]);
const after = data?.transactions.at(-1)?.cursor || '';
const params: URLSearchParamsInit = { after };
if (filters) {
params.filters = Array.from(filters).join(',');
}
setSearchParams(params);
}, [filters, data, setSearchParams]);
const previousPage = useCallback(() => {
const previousCursor = [...previousCursors].pop();
const newPreviousCursors = previousCursors.slice(0, -1);
setTxsState((prev) => ({
...prev,
hasPreviousPage: newPreviousCursors.length > 0,
previousCursors: newPreviousCursors,
}));
return refetch({
limit,
before: previousCursor,
});
}, [previousCursors, limit, refetch]);
const before = data?.transactions[0]?.cursor || '';
const params: URLSearchParamsInit = { before };
if (filters && filters.size > 0 && filters.size === 1) {
params.filters = Array.from(filters)[0];
}
setSearchParams(params);
}, [filters, data, setSearchParams]);
const refreshTxs = useCallback(async () => {
setTxsState(() => ({
txsData: [],
cursor: '',
previousCursors: [],
hasMoreTxs: false,
hasPreviousPage: false,
}));
const params: URLSearchParamsInit = {};
if (filters && filters.size > 0 && filters.size === 1) {
params.filters = Array.from(filters)[0];
}
setSearchParams(params);
refetch({ limit });
}, [setTxsState, limit, refetch, filters]); // eslint-disable-line react-hooks/exhaustive-deps
refetch({ count: BE_TXS_PER_REQUEST });
}, [setSearchParams, refetch, filters]);
const updateFilters = useCallback(
(newFilters: Set<FilterOption>) => {
const params: URLSearchParamsInit = {};
if (newFilters && newFilters.size === 1) {
params.filters = Array.from(newFilters)[0];
}
setSearchParams(params);
},
[setSearchParams]
);
return {
updateFilters,
txsData,
loading,
error,
hasMoreTxs,
hasPreviousPage,
previousCursors,
cursor,
refreshTxs,
nextPage,
previousPage,
};
};
/**
* Returns a Set of filters based on the URLSearchParams, or
* defaults to all.
* @param params
* @returns Set
*/
export function getInitialFilters(params: URLSearchParams): Set<FilterOption> {
const defaultFilters = new Set(AllFilterOptions);
const p = params.get('filters');
if (!p) {
return defaultFilters;
}
const filters = new Set<FilterOption>();
p.split(',').forEach((f) => {
if (AllFilterOptions.includes(f as FilterOption)) {
filters.add(f as FilterOption);
}
});
if (filters.size === 0) {
return defaultFilters;
}
return filters;
}
@@ -204,6 +204,7 @@ describe('Block', () => {
(useFetch as jest.Mock).mockReturnValue({
state: { data: createBlockResponse(1), loading: false, error: null },
});
render(renderComponent(1));
await waitFor(() => screen.getByTestId('block-header'));
expect(screen.getByTestId('previous-block-button')).toHaveAttribute(
@@ -1,7 +1,5 @@
import { Link, useParams } from 'react-router-dom';
import { DATA_SOURCES } from '../../../config';
import { getDateTimeFormat } from '@vegaprotocol/utils';
import type { TendermintBlocksResponse } from '../tendermint-blocks-response';
import { RouteTitle } from '../../../components/route-title';
import { TimeAgo } from '../../../components/time-ago';
import {
@@ -14,7 +12,7 @@ import { TxsPerBlock } from '../../../components/txs/txs-per-block';
import { AsyncRenderer, Button } from '@vegaprotocol/ui-toolkit';
import { Routes } from '../../route-names';
import { t } from '@vegaprotocol/i18n';
import { useFetch } from '@vegaprotocol/react-helpers';
import { useBlockInfo } from '@vegaprotocol/tendermint';
import { NodeLink } from '../../../components/links';
import { useDocumentTitle } from '../../../hooks/use-document-title';
import EmptyList from '../../../components/empty-list/empty-list';
@@ -24,10 +22,7 @@ const Block = () => {
useDocumentTitle(['Blocks', `Block #${block}`]);
const {
state: { data: blockData, loading, error },
} = useFetch<TendermintBlocksResponse>(
`${DATA_SOURCES.tendermintUrl}/block?height=${block}`,
{ cache: 'force-cache' }
);
} = useBlockInfo(Number(block));
return (
<section>
@@ -54,7 +54,7 @@ export const PartyBlockStake = ({
{p?.stakingSummary.currentStakeAvailable ? (
<KeyValueTable>
<KeyValueTableRow noBorder={true}>
<div>{t('Available stake')}</div>
<div>{t('Associated to key')}</div>
<div>
<GovernanceAssetBalance
price={p.stakingSummary.currentStakeAvailable}
@@ -62,7 +62,7 @@ export const PartyBlockStake = ({
</div>
</KeyValueTableRow>
<KeyValueTableRow noBorder={true}>
<div>{t('Active stake')}</div>
<div>{t('Staked to validator')}</div>
<div>
<GovernanceAssetBalance price={linkedStake || '0'} />
</div>
@@ -15,9 +15,13 @@ import { PartyBlockAccounts } from './components/party-block-accounts';
import { isValidPartyId } from './components/party-id-error';
import { useDataProvider } from '@vegaprotocol/data-provider';
import { TxsListNavigation } from '../../../components/txs/tx-list-navigation';
import type { FilterOption } from '../../../components/txs/tx-filter';
import { AllFilterOptions, TxsFilter } from '../../../components/txs/tx-filter';
import { useSearchParams } from 'react-router-dom';
const Party = () => {
const [params] = useSearchParams();
const [filters, setFilters] = useState(new Set(AllFilterOptions));
const { party } = useParams<{ party: string }>();
@@ -27,24 +31,21 @@ const Party = () => {
const partyId = toNonHex(party ? party : '');
const { isMobile } = useScreenDimensions();
const visibleChars = useMemo(() => (isMobile ? 10 : 14), [isMobile]);
const baseFilters = `filters[tx.submitter]=${partyId}`;
const f =
filters && filters.size === 1
? `${baseFilters}&filters[cmd.type]=${Array.from(filters)[0]}`
: baseFilters;
const {
hasMoreTxs,
nextPage,
refreshTxs,
previousPage,
error,
refreshTxs,
loading,
txsData,
hasPreviousPage,
hasMoreTxs,
updateFilters,
} = useTxsData({
limit: 25,
filters: f,
filters: filters.size === 1 ? filters : undefined,
before: params.get('before') || undefined,
after: !params.get('before') ? params.get('after') || undefined : undefined,
party: partyId,
});
const variables = useMemo(() => ({ partyId }), [partyId]);
@@ -67,7 +68,7 @@ const Party = () => {
text: t('Go back'),
action: () => navigate(-1),
className: 'py-1',
size: 'sm',
size: 'small',
}}
/>
</div>
@@ -102,15 +103,21 @@ const Party = () => {
refreshTxs={refreshTxs}
nextPage={nextPage}
previousPage={previousPage}
hasPreviousPage={hasPreviousPage}
hasPreviousPage={true}
loading={loading}
hasMoreTxs={hasMoreTxs}
>
<TxsFilter filters={filters} setFilters={setFilters} />
<TxsFilter
filters={filters}
setFilters={(f) => {
setFilters(f);
updateFilters(f as Set<FilterOption>);
}}
/>
</TxsListNavigation>
{!error && txsData ? (
<TxsInfiniteList
hasMoreTxs={hasMoreTxs}
hasMoreTxs={true}
areTxsLoading={loading}
txs={txsData}
loadMoreTxs={nextPage}
@@ -14,7 +14,6 @@ import { Block } from './blocks/id';
import { Blocks } from './blocks/home';
import { Tx } from './txs/id';
import { TxsList } from './txs/home';
import flags from '../config/flags';
import { t } from '@vegaprotocol/i18n';
import { Routes } from './route-names';
import { NetworkParameters } from './network-parameters';
@@ -30,6 +29,7 @@ import { truncateMiddle } from '@vegaprotocol/ui-toolkit';
import { remove0x } from '@vegaprotocol/utils';
import { PartyAccountsByAsset } from './parties/id/accounts';
import { Disclaimer } from './pages/disclaimer';
import { FLAGS } from '@vegaprotocol/environment';
export type Navigable = {
path: string;
@@ -59,7 +59,7 @@ type Route = RouteItem & {
children?: RouteItem[];
};
const partiesRoutes: Route[] = flags.parties
const partiesRoutes: Route[] = FLAGS.EXPLORER_PARTIES
? [
{
path: Routes.PARTIES,
@@ -119,7 +119,7 @@ const partiesRoutes: Route[] = flags.parties
]
: [];
const assetsRoutes: Route[] = flags.assets
const assetsRoutes: Route[] = FLAGS.EXPLORER_ASSETS
? [
{
path: Routes.ASSETS,
@@ -147,7 +147,7 @@ const assetsRoutes: Route[] = flags.assets
]
: [];
const genesisRoutes: Route[] = flags.genesis
const genesisRoutes: Route[] = FLAGS.EXPLORER_GENESIS
? [
{
path: Routes.GENESIS,
@@ -163,7 +163,7 @@ const genesisRoutes: Route[] = flags.genesis
]
: [];
const governanceRoutes: Route[] = flags.governance
const governanceRoutes: Route[] = FLAGS.EXPLORER_GOVERNANCE
? [
{
path: Routes.GOVERNANCE,
@@ -179,7 +179,7 @@ const governanceRoutes: Route[] = flags.governance
]
: [];
const marketsRoutes: Route[] = flags.markets
const marketsRoutes: Route[] = FLAGS.EXPLORER_MARKETS
? [
{
path: Routes.MARKETS,
@@ -207,7 +207,7 @@ const marketsRoutes: Route[] = flags.markets
]
: [];
const networkParametersRoutes: Route[] = flags.networkParameters
const networkParametersRoutes: Route[] = FLAGS.EXPLORER_NETWORK_PARAMETERS
? [
{
path: Routes.NETWORK_PARAMETERS,
@@ -225,7 +225,7 @@ const networkParametersRoutes: Route[] = flags.networkParameters
]
: [];
const validators: Route[] = flags.validators
const validators: Route[] = FLAGS.EXPLORER_VALIDATORS
? [
{
path: Routes.VALIDATORS,
+19 -16
View File
@@ -1,14 +1,14 @@
import { t } from '@vegaprotocol/i18n';
import { RouteTitle } from '../../../components/route-title';
import { TxsInfiniteList } from '../../../components/txs';
import { useTxsData } from '../../../hooks/use-txs-data';
import { useTxsData, getInitialFilters } from '../../../hooks/use-txs-data';
import { useDocumentTitle } from '../../../hooks/use-document-title';
import { useState } from 'react';
import { AllFilterOptions, TxsFilter } from '../../../components/txs/tx-filter';
import { TxsFilter } from '../../../components/txs/tx-filter';
import type { FilterOption } from '../../../components/txs/tx-filter';
import { TxsListNavigation } from '../../../components/txs/tx-list-navigation';
const BE_TXS_PER_REQUEST = 25;
import { useSearchParams } from 'react-router-dom';
export const TxsList = () => {
useDocumentTitle(['Transactions']);
@@ -27,25 +27,22 @@ export const TxsList = () => {
* @returns {JSX.Element} Transaction List and controls
*/
export const TxsListFiltered = () => {
const [filters, setFilters] = useState(new Set(AllFilterOptions));
const f =
filters && filters.size === 1
? `filters[cmd.type]=${Array.from(filters)[0]}`
: '';
const [params] = useSearchParams();
const [filters, setFilters] = useState(getInitialFilters(params));
const {
hasMoreTxs,
nextPage,
previousPage,
error,
refreshTxs,
loading,
txsData,
hasPreviousPage,
hasMoreTxs,
updateFilters,
} = useTxsData({
limit: BE_TXS_PER_REQUEST,
filters: f,
filters: filters.size === 1 ? filters : undefined,
before: params.get('before') || undefined,
after: !params.get('before') ? params.get('after') || undefined : undefined,
});
return (
@@ -54,11 +51,17 @@ export const TxsListFiltered = () => {
refreshTxs={refreshTxs}
nextPage={nextPage}
previousPage={previousPage}
hasPreviousPage={hasPreviousPage}
hasPreviousPage={true}
loading={loading}
hasMoreTxs={hasMoreTxs}
>
<TxsFilter filters={filters} setFilters={setFilters} />
<TxsFilter
filters={filters}
setFilters={(f) => {
setFilters(f);
updateFilters(f as Set<FilterOption>);
}}
/>
</TxsListNavigation>
<TxsInfiniteList
hasFilters={filters.size > 0}
@@ -15,6 +15,9 @@ query ExplorerNodes {
stakedByDelegates
stakedTotal
pendingStake
rankingScore {
performanceScore
}
epochData {
total
offline
@@ -6,7 +6,7 @@ const defaultOptions = {} as const;
export type ExplorerNodesQueryVariables = Types.Exact<{ [key: string]: never; }>;
export type ExplorerNodesQuery = { __typename?: 'Query', nodesConnection: { __typename?: 'NodesConnection', edges?: Array<{ __typename?: 'NodeEdge', node: { __typename?: 'Node', id: string, name: string, infoUrl: string, avatarUrl?: string | null, pubkey: string, tmPubkey: string, ethereumAddress: string, location: string, status: Types.NodeStatus, stakedByOperator: string, stakedByDelegates: string, stakedTotal: string, pendingStake: string, epochData?: { __typename?: 'EpochData', total: number, offline: number, online: number } | null } } | null> | null } };
export type ExplorerNodesQuery = { __typename?: 'Query', nodesConnection: { __typename?: 'NodesConnection', edges?: Array<{ __typename?: 'NodeEdge', node: { __typename?: 'Node', id: string, name: string, infoUrl: string, avatarUrl?: string | null, pubkey: string, tmPubkey: string, ethereumAddress: string, location: string, status: Types.NodeStatus, stakedByOperator: string, stakedByDelegates: string, stakedTotal: string, pendingStake: string, rankingScore: { __typename?: 'RankingScore', performanceScore: string }, epochData?: { __typename?: 'EpochData', total: number, offline: number, online: number } | null } } | null> | null } };
export const ExplorerNodesDocument = gql`
@@ -27,6 +27,9 @@ export const ExplorerNodesDocument = gql`
stakedByDelegates
stakedTotal
pendingStake
rankingScore {
performanceScore
}
epochData {
total
offline
@@ -91,7 +91,15 @@ export const ValidatorsPage = () => {
const { data: tmData } = useTendermintValidators(5000);
const { data, loading, error, refetch } = useExplorerNodesQuery();
const validators = compact(data?.nodesConnection.edges?.map((e) => e?.node));
const validators = compact(
data?.nodesConnection.edges
?.map((e) => e?.node)
.filter(
(node) =>
node?.rankingScore?.performanceScore &&
new BigNumber(node.rankingScore.performanceScore).isGreaterThan(0)
)
);
// voting power
const powers = compact(tmData?.result.validators).map(
Binary file not shown.

After

Width:  |  Height:  |  Size: 1.4 KiB

Binary file not shown.

After

Width:  |  Height:  |  Size: 547 B

Binary file not shown.

After

Width:  |  Height:  |  Size: 1.5 KiB

+20
View File
@@ -0,0 +1,20 @@
{
"short_name": "Mainnet Stats",
"name": "Vega Mainnet statistics",
"icons": [
{
"src": "favicon.ico",
"sizes": "64x64 32x32 24x24 16x16",
"type": "image/x-icon"
},
{
"src": "logo192.png",
"type": "image/png",
"sizes": "192x192"
}
],
"start_url": ".",
"display": "standalone",
"theme_color": "#000000",
"background_color": "#ffffff"
}
+3
View File
@@ -0,0 +1,3 @@
# https://www.robotstxt.org/robotstxt.html
User-agent: *
Disallow:
+27 -11
View File
@@ -1,23 +1,39 @@
<!DOCTYPE html>
<html lang="en">
<head>
<meta charset="utf-8" />
<title>Explorer</title>
<base href="/" />
<link
rel="preload"
href="https://static.vega.xyz/AlphaLyrae-Medium.woff2"
as="font"
type="font/woff2"
crossorigin="anonymous"
/>
<meta name="viewport" content="width=device-width, initial-scale=1" />
<meta charset="utf-8" />
<link
rel="icon"
type="image/x-icon"
href="https://static.vega.xyz/favicon.ico"
/>
<link rel="stylesheet" href="https://static.vega.xyz/fonts.css" />
<meta name="viewport" content="width=device-width, initial-scale=1" />
<meta name="theme-color" content="#000000" />
<meta name="description" content="Vega Protocol - VEGA Explorer" />
<meta name="og:type" content="website" />
<meta name="og:url" content="https://explorer.vega.xyz/" />
<meta name="og:title" content="Vega Protocol - Explorer" />
<meta name="og:site_name" content="Vega Protocol - Explorer" />
<meta name="og:image" content="https://static.vega.xyz/favicon.ico" />
<meta name="twitter:card" content="summary_large_image" />
<meta name="twitter:title" content="Vega Protocol - Explorer" />
<meta name="twitter:description" content="Vega Protocol - Explorer" />
<meta name="twitter:image" content="https://static.vega.xyz/favicon.ico" />
<meta name="twitter:image:alt" content="VEGA logo" />
<meta name="twitter:site" content="@vegaprotocol" />
<meta name="description" content="Vega Protocol - Explorer" />
<link rel="apple-touch-icon" href="assets/apple-touch-icon.png" />
<link rel="manifest" href="assets/manifest.json" />
<link
rel="preload"
href="https://static.vega.xyz/AlphaLyrae-Medium.woff2"
as="font"
type="font/woff2"
/>
<title>VEGA Explorer</title>
<script src="./assets/env-config.js"></script>
</head>
<body class="dark:bg-black h-full w-full">
+1
View File
@@ -18,6 +18,7 @@ NX_ANNOUNCEMENTS_CONFIG_URL=https://raw.githubusercontent.com/vegaprotocol/annou
NX_GITHUB_FEEDBACK_URL=https://github.com/vegaprotocol/feedback/discussions
NX_WALLETCONNECT_PROJECT_ID=fe8091dc35738863e509fc4947525c72
NX_VEGA_REST_URL=http://localhost:3008/api/v2/
NX_SUCCESSOR_MARKETS=true
#Test configuration variables
CYPRESS_FAIRGROUND=false
@@ -0,0 +1,107 @@
{
"changes": {
"decimalPlaces": "5",
"positionDecimalPlaces": "5",
"linearSlippageFactor": "0.001",
"quadraticSlippageFactor": "0",
"lpPriceRange": "10",
"instrument": {
"name": "Token test market",
"code": "Token.24h",
"future": {
"settlementAsset": "816af99af60d684502a40824758f6b5377e6af48e50a9ee8ef478ecb879ea8bc",
"quoteName": "fUSDC",
"dataSourceSpecForSettlementData": {
"external": {
"oracle": {
"signers": [
{
"pubKey": {
"key": "70d14a321e02e71992fd115563df765000ccc4775cbe71a0e2f9ff5a3b9dc680"
}
}
],
"filters": [
{
"key": {
"name": "prices.BTC.value",
"type": "TYPE_INTEGER",
"numberDecimalPlaces": "0"
},
"conditions": [
{
"operator": "OPERATOR_GREATER_THAN",
"value": "0"
}
]
}
]
}
}
},
"dataSourceSpecForTradingTermination": {
"external": {
"oracle": {
"signers": [
{
"pubKey": {
"key": "70d14a321e02e71992fd115563df765000ccc4775cbe71a0e2f9ff5a3b9dc680"
}
}
],
"filters": [
{
"key": {
"name": "trading.terminated.ETH5",
"type": "TYPE_BOOLEAN"
},
"conditions": [
{
"operator": "OPERATOR_EQUALS",
"value": "true"
}
]
}
]
}
}
},
"dataSourceSpecBinding": {
"settlementDataProperty": "prices.BTC.value",
"tradingTerminationProperty": "trading.terminated.ETH5"
}
}
},
"metadata": ["sector:food", "sector:materials", "source:docs.vega.xyz"],
"priceMonitoringParameters": {
"triggers": [
{
"horizon": "43200",
"probability": "0.9999999",
"auctionExtension": "600"
}
]
},
"liquidityMonitoringParameters": {
"targetStakeParameters": {
"timeWindow": "3600",
"scalingFactor": 10
},
"triggeringRatio": "0.7",
"auctionExtension": "1"
},
"logNormal": {
"tau": 0.0001140771161,
"riskAversionParameter": 0.001,
"params": {
"mu": 0,
"r": 0.016,
"sigma": 0.8
}
},
"successor": {
"parentMarketId": "",
"insurancePoolFraction": "0.75"
}
}
}
@@ -11,7 +11,9 @@ import {
getDateFormatForSpecifiedDays,
getProposalFromTitle,
getProposalInformationFromTable,
proposalChangeType,
submitUniqueRawProposal,
validateProposalDetailsDiff,
voteForProposal,
} from '../../../../governance-e2e/src/support/governance.functions';
import {
@@ -26,7 +28,9 @@ import {
} from '../../support/wallet-functions';
import type { testFreeformProposal } from '../../support/common-interfaces';
import { formatDateWithLocalTimezone } from '@vegaprotocol/utils';
import { createSuccessorMarketProposalTxBody } from '../../support/proposal.functions';
const proposalListItem = '[data-testid="proposals-list-item"]';
const proposalVoteProgressForPercentage =
'vote-progress-indicator-percentage-for';
const proposalVoteProgressAgainstPercentage =
@@ -42,6 +46,7 @@ const viewProposalButton = 'view-proposal-btn';
const proposalDescriptionToggle = 'proposal-description-toggle';
const voteBreakdownToggle = 'vote-breakdown-toggle';
const proposalTermsToggle = 'proposal-json-toggle';
const marketDataToggle = 'proposal-market-data-toggle';
describe(
'Governance flow for proposal details',
@@ -218,17 +223,33 @@ describe(
getProposalInformationFromTable('Tokens for proposal')
.should('have.text', (1).toFixed(2))
.and('be.visible');
navigateTo(navigation.proposals);
cy.get<testFreeformProposal>('@rawProposal').then((rawProposal) => {
getProposalFromTitle(rawProposal.rationale.title).within(() => {
// 3002-PROP-021
cy.getByTestId('user-voted-yes').should('exist');
cy.getByTestId(viewProposalButton).click();
});
});
cy.getByTestId(changeVoteButton).should('be.visible').click();
voteForProposal('against');
cy.getByTestId(proposalVoteProgressAgainstPercentage)
.contains('100.00%')
.and('be.visible');
cy.getByTestId(voteBreakdownToggle).click();
getProposalInformationFromTable('Tokens against proposal')
.should('have.text', (1).toFixed(2))
.and('be.visible');
getProposalInformationFromTable('Number of voting parties')
.should('have.text', '1')
.and('be.visible');
navigateTo(navigation.proposals);
cy.get<testFreeformProposal>('@rawProposal').then((rawProposal) => {
getProposalFromTitle(rawProposal.rationale.title).within(() => {
cy.getByTestId('user-voted-no').should('exist');
cy.getByTestId(viewProposalButton).click();
});
});
});
// 3001-VOTE-042, 3001-VOTE-057, 3001-VOTE-058, 3001-VOTE-059, 3001-VOTE-060
@@ -338,5 +359,98 @@ describe(
switchVegaWalletPubKey();
stakingPageDisassociateAllTokens();
});
it('Able to see successor market details with new and updated values', function () {
cy.createMarket();
cy.reload();
waitForSpinner();
cy.getByTestId('closed-proposals').within(() => {
cy.contains('Add Lorem Ipsum market')
.parentsUntil(proposalListItem)
.last()
.within(() => {
cy.getByTestId(viewProposalButton).click();
});
});
getProposalInformationFromTable('ID')
.invoke('text')
.as('parentMarketId')
.then(() => {
cy.VegaWalletSubmitProposal(
createSuccessorMarketProposalTxBody(this.parentMarketId)
);
});
navigateTo(navigation.proposals);
cy.reload();
getProposalFromTitle('Test successor market proposal details').within(
() => cy.getByTestId(viewProposalButton).click()
);
// #3003-PMAN-010
cy.getByTestId(proposalTermsToggle).click();
cy.get('.language-json').within(() => {
cy.get('.hljs-attr').should('contain.text', 'parentMarketId');
cy.get('.hljs-string').should('contain.text', this.parentMarketId);
cy.get('.hljs-attr').should('contain.text', 'insurancePoolFraction');
cy.get('.hljs-string').should('contain.text', '0.75');
});
// 3003-PMAN-011 3003-PMAN-012
cy.getByTestId(marketDataToggle).click();
cy.getByTestId('proposal-market-data').within(() => {
cy.contains('Key details').click();
validateProposalDetailsDiff(
'Name',
proposalChangeType.UPDATED,
'Token test market',
'Test market 1'
);
validateProposalDetailsDiff(
'Parent Market ID',
proposalChangeType.ADDED,
this.parentMarketId
);
validateProposalDetailsDiff(
'Insurance Pool Fraction',
proposalChangeType.ADDED,
'0.75'
);
validateProposalDetailsDiff(
'Trading Mode',
proposalChangeType.UPDATED,
'No trading',
'Opening auction'
);
cy.contains('Instrument').click();
validateProposalDetailsDiff(
'Market Name',
proposalChangeType.UPDATED,
'Token test market',
'Test market 1'
);
cy.contains('Metadata').click();
validateProposalDetailsDiff(
'Sector',
proposalChangeType.UPDATED,
'materials',
'tech'
);
});
// 3003-PMAN-011
cy.get('.underline').contains('Parent Market ID').realHover();
cy.getByTestId('tooltip-content', { timeout: 8000 }).should(
'contain.text',
'The ID of the market this market succeeds.'
);
cy.get('.underline')
.contains('Insurance Pool Fraction')
.realMouseUp()
.realHover();
cy.getByTestId('tooltip-content', { timeout: 8000 }).should(
'contain.text',
'The fraction of the insurance pool balance that is carried over from the parent market to the successor.'
);
});
}
);
@@ -26,6 +26,8 @@ const votesTable = 'votes-table';
const openProposals = 'open-proposals';
const proposalVoteProgressForPercentage =
'vote-progress-indicator-percentage-for';
const majorityVoteReached = 'majority-reached';
const minParticipationReached = 'participation-reached';
const proposalTimeout = { timeout: 8000 };
context(
@@ -72,7 +74,7 @@ context(
});
});
// 3001-VOTE-046 3001-VOTE-044 3001-VOTE-074 3001-VOTE-074
// 3001-VOTE-020 3001-VOTE-021 3001-VOTE-046 3001-VOTE-044 3001-VOTE-074 3001-VOTE-074
it('Able to enact proposal by voting', function () {
const proposalTitle = 'Add New proposal with short enactment';
const proposalTx = createUpdateNetworkProposalTxBody();
@@ -85,10 +87,18 @@ context(
cy.contains(proposalTitle)
.parentsUntil(proposalListItem)
.last()
.within(() => cy.getByTestId(viewProposalButton).click());
.within(() => {
// 3001-VOTE-019 time to vote is highlighted red
cy.getByTestId('vote-details')
.find('span')
.should('have.class', 'text-vega-pink');
cy.getByTestId(viewProposalButton).click();
});
});
cy.getByTestId(proposalStatus).should('have.text', 'Open');
voteForProposal('for');
cy.getByTestId(majorityVoteReached).should('exist');
cy.getByTestId(minParticipationReached).should('exist');
cy.getByTestId(proposalStatus, proposalTimeout)
.should('have.text', 'Passed')
.then(() => {
@@ -104,6 +114,14 @@ context(
cy.getByTestId(proposalVoteProgressForPercentage)
.contains('100.00%')
.and('be.visible');
navigateTo(navigation.proposals);
cy.contains(proposalTitle)
.parentsUntil(proposalListItem)
.last()
.within(() => {
cy.getByTestId(majorityVoteReached).should('exist');
cy.getByTestId(minParticipationReached).should('exist');
});
});
// 3001-VOTE-047
@@ -320,8 +320,8 @@ context(
// 3001-VOTE-076
cy.getByTestId(connectToVegaWalletButton)
.should('be.visible')
.and('have.text', 'Connect Vega wallet')
.click();
.and('have.text', 'Connect Vega wallet');
cy.getByTestId(connectToVegaWalletButton).click();
cy.getByTestId('connector-jsonRpc').click();
cy.getByTestId(vegaWalletNameElement).should('be.visible');
cy.getByTestId(connectToVegaWalletButton).should('not.exist');
@@ -220,7 +220,7 @@ context(
function () {
const proposalTitle = 'Test new market proposal';
goToMakeNewProposal(governanceProposalType.NEW_MARKET);
cy.getByTestId(newProposalTitle).type('Test new market proposal');
cy.getByTestId(newProposalTitle).type(proposalTitle);
cy.getByTestId(newProposalDescription).type('E2E test for proposals');
cy.fixture('/proposals/new-market').then((newMarketProposal) => {
const newMarketPayload = JSON.stringify(newMarketProposal);
@@ -606,6 +606,57 @@ context(
});
});
it('able to submit successor market proposal', function () {
const proposalTitle = 'Test successor market proposal';
cy.createMarket();
cy.reload();
waitForSpinner();
cy.getByTestId('closed-proposals').within(() => {
cy.contains('Add Lorem Ipsum market')
.parentsUntil(proposalListItem)
.last()
.within(() => {
cy.getByTestId(viewProposalBtn).click();
});
});
getProposalInformationFromTable('ID').invoke('text').as('parentMarketId');
goToMakeNewProposal(governanceProposalType.NEW_MARKET);
cy.getByTestId(newProposalTitle).type(proposalTitle);
cy.getByTestId(newProposalDescription).type(
'E2E test for successor market'
);
cy.fixture('/proposals/successor-market').then((newMarketProposal) => {
newMarketProposal.changes.successor.parentMarketId =
this.parentMarketId;
const newMarketPayload = JSON.stringify(newMarketProposal);
cy.getByTestId(newProposalTerms).type(newMarketPayload, {
parseSpecialCharSequences: false,
delay: 2,
});
});
cy.getByTestId(proposalDownloadBtn)
.should('be.visible')
.click()
.then(() => {
cy.wrap(
getDownloadedProposalJsonPath('vega-new-market-proposal-')
).then((filePath) => {
goToMakeNewProposal(governanceProposalType.RAW);
submitUniqueRawProposal({ proposalBody: filePath });
});
});
navigateTo(navigation.proposals);
getProposalFromTitle(proposalTitle).within(() => {
// 3003-PMAN-008
cy.getByTestId('proposal-successor-info')
.should('have.text', 'Successor market to: TEST.24h')
.find('a')
.should('have.attr', 'href')
.and('contain', this.parentMarketId);
});
});
after('Disassociate from second wallet key if present', function () {
cy.reload();
waitForSpinner();
@@ -642,6 +693,7 @@ context(
.getByTestId('key-value-table-row')
.contains(heading)
.parent()
.parent()
.siblings();
}
}
@@ -49,8 +49,8 @@ describe('Governance flow for proposal list', { tags: '@slow' }, function () {
navigateTo(navigation.proposals);
});
// 3001-VOTE-018
it('Newly created proposals list - proposals closest to closing date appear higher in list', function () {
// 3001-VOTE-005
const proposalDays = [364, 50, 2];
for (let index = 0; index < proposalDays.length; index++) {
goToMakeNewProposal(governanceProposalType.RAW);
@@ -120,16 +120,24 @@ describe('Governance flow for proposal list', { tags: '@slow' }, function () {
submitUniqueRawProposal({ proposalTitle: proposalTitle });
getProposalFromTitle(proposalTitle).within(() => {
// 3001-VOTE-039
cy.getByTestId(voteStatus).should(
cy.getByTestId('participation-not-reached').should(
'have.text',
'Participation not reached'
'Min. participation not reached'
);
cy.getByTestId(viewProposalButton).click();
});
voteForProposal('for');
navigateTo(navigation.proposals);
getProposalFromTitle(proposalTitle).within(() => {
cy.getByTestId(voteStatus).should('have.text', 'Set to pass');
cy.getByTestId(voteStatus).should(
'have.text',
'Currently expected to pass'
);
cy.getByTestId('user-voted-yes').should('exist');
cy.getByTestId('participation-reached').should(
'have.text',
'Min. participation reached'
);
cy.getByTestId(viewProposalButton).click();
});
cy.getByTestId(voteBreakDownToggle).click();
@@ -96,12 +96,14 @@ context('rewards - flow', { tags: '@slow' }, function () {
.within(() => {
cy.get('h2').first().should('contain.text', 'EPOCH');
cy.getByTestId('individual-rewards-asset').should('have.text', 'Vega');
cy.getByTestId('ACCOUNT_TYPE_GLOBAL_REWARD', rewardsTimeOut)
.should('contain.text', '0.4415')
.and('contain.text', '(44.15%)');
cy.getByTestId('ACCOUNT_TYPE_FEES_INFRASTRUCTURE')
.should('contain.text', '0.0004')
.and('contain.text', '(44.15%)');
cy.getByTestId('ACCOUNT_TYPE_GLOBAL_REWARD', rewardsTimeOut).should(
'contain.text',
'0.4415'
);
cy.getByTestId('ACCOUNT_TYPE_FEES_INFRASTRUCTURE').should(
'contain.text',
'0.0004'
);
cy.getByTestId('total').should('have.text', '0.4419');
});
});
@@ -25,6 +25,9 @@ import {
vegaWalletSetSpecifiedApprovalAmount,
vegaWalletTeardown,
} from '../../support/wallet-functions';
import { aliasGQLQuery } from '@vegaprotocol/cypress';
import { chainIdQuery, statisticsQuery } from '@vegaprotocol/mock';
const stakeValidatorListTotalStake = 'total-stake';
const stakeValidatorListTotalShare = 'total-stake-share';
const stakeValidatorListStakePercentage = 'stake-percentage';
@@ -55,6 +58,10 @@ context(
function () {
// 1002-STKE-002, 1002-STKE-032
before('visit staking tab and connect vega wallet', function () {
cy.mockGQL((req) => {
aliasGQLQuery(req, 'ChainId', chainIdQuery());
aliasGQLQuery(req, 'Statistics', statisticsQuery());
});
cy.visit('/');
ethereumWalletConnect();
cy.connectVegaWallet();
@@ -65,6 +72,10 @@ context(
beforeEach(
'teardown wallet & drill into a specific validator',
function () {
cy.mockGQL((req) => {
aliasGQLQuery(req, 'ChainId', chainIdQuery());
aliasGQLQuery(req, 'Statistics', statisticsQuery());
});
cy.clearLocalStorage();
turnTelemetryOff();
// Go to homepage to allow wallet teardown without epoch timer refreshing page
@@ -144,7 +155,7 @@ context(
closeStakingDialog();
navigateTo(navigation.validators);
cy.getByTestId(viewStakedByMeToggle).click();
cy.getByTestId(userStakeBtn).should('have.length', 2);
cy.getByTestId(userStakeBtn, epochTimeout).should('have.length', 2);
});
it('Able to stake against a validator - using vega from vesting contract', function () {
@@ -351,6 +351,12 @@ context(
);
stakingPageDisassociateAllTokens();
});
it('Able to associate over 1 million tokens', function () {
cy.get(ethWalletAssociateButton).click();
stakingPageAssociateTokens('2000000', { approve: true });
stakingPageDisassociateAllTokens();
});
});
}
);
@@ -6,6 +6,8 @@ import {
} from '../../support/common.functions';
import { ethereumWalletConnect } from '../../support/wallet-eth.functions';
import { depositAsset } from '../../support/wallet-functions';
import { aliasGQLQuery } from '@vegaprotocol/cypress';
import { chainIdQuery, statisticsQuery } from '@vegaprotocol/mock';
const withdraw = 'withdraw';
const withdrawalForm = 'withdraw-form';
@@ -42,12 +44,20 @@ context(
{ tags: '@slow' },
function () {
before('visit withdrawals and connect vega wallet', function () {
cy.mockGQL((req) => {
aliasGQLQuery(req, 'ChainId', chainIdQuery());
aliasGQLQuery(req, 'Statistics', statisticsQuery());
});
cy.visit('/');
ethereumWalletConnect();
depositAsset(usdcEthAddress, '1000', 5);
});
beforeEach('Navigate to withdrawal page', function () {
cy.mockGQL((req) => {
aliasGQLQuery(req, 'ChainId', chainIdQuery());
aliasGQLQuery(req, 'Statistics', statisticsQuery());
});
cy.clearLocalStorage();
turnTelemetryOff();
cy.reload();
@@ -11,7 +11,7 @@ context('Home Page - verify elements on page', { tags: '@smoke' }, function () {
cy.getByTestId('home-proposals').within(() => {
cy.get('[href="/proposals"]')
.should('exist')
.and('have.text', 'Browse, vote, and propose');
.and('have.text', 'See all proposals');
});
});
@@ -161,7 +161,7 @@ context('Home Page - verify elements on page', { tags: '@smoke' }, function () {
cy.getByTestId('menu-drawer').should('be.visible');
});
it.skip('should have link for proposal page', function () {
it('should have link for proposal page', function () {
cy.getByTestId('menu-drawer').within(() => {
cy.get('[href="/proposals"]')
.should('exist')
@@ -17,6 +17,7 @@ const governanceDocsUrl = 'https://vega.xyz/governance';
const networkUpgradeProposalListItem = 'protocol-upgrade-proposals-list-item';
const closedProposals = 'closed-proposals';
const closedProposalToggle = 'closed-proposals-toggle-networkUpgrades';
const protocolUpgradeTime = 'protocol-upgrade-time';
context(
'Governance Page - verify elements on page',
@@ -161,7 +162,7 @@ context(
);
cy.getByTestId('protocol-upgrade-proposal-status').should(
'have.text',
'Approved by validators '
'Approved by validators'
);
});
});
@@ -174,6 +175,7 @@ context(
});
});
// 3009-NTWU-003 3009-NTWU-004 3009-NTWU-007
it('should see details of network upgrade proposal', function () {
mockNetworkUpgradeProposal();
navigateTo(navigation.proposals);
@@ -227,5 +229,51 @@ context(
cy.getByTestId(networkUpgradeProposalListItem).should('not.exist');
cy.getByTestId(closedProposalToggle).should('not.exist');
});
// 3009-NTWU-001 3009-NTWU-002 3009-NTWU-006 3009-NTWU-009
it('should display network upgrade banner with estimate', function () {
mockNetworkUpgradeProposal();
cy.visit('/');
cy.getByTestId('banners').within(() => {
cy.get('div')
.should('contain.text', 'The network will upgrade to v1 in ')
.and(
'contain.text',
'Trading activity will be interrupted, manage your risk appropriately.'
);
cy.getByTestId('external-link')
.should('have.attr', 'href')
.and('contain', '/proposals/protocol-upgrade/v1');
});
// estimate does not display possibly due to mocks or Cypress unless the proposal is clicked on several times
// By default the application waits for 10 blocks until showing estimate - roughly 10 seconds
for (let i = 0; i < 3; i++) {
// eslint-disable-next-line cypress/no-unnecessary-waiting
cy.wait(3000);
navigateTo(navigation.proposals);
cy.getByTestId(networkUpgradeProposalListItem)
.first()
.find('[data-testid="view-proposal-btn"]')
.click();
}
cy.getByTestId('upgrade-proposal-estimate')
.invoke('text')
.as('displayedEstimate');
cy.get('@displayedEstimate').then((estimateText) => {
// Estimated time should automatically update every second
cy.getByTestId(protocolUpgradeTime)
.invoke('text')
.should('not.eq', estimateText);
});
// time estimate on proposal detail
cy.getByTestId('protocol-upgrade-proposal').within(() => {
cy.get('@displayedEstimate').then((estimateText) => {
cy.getByTestId(protocolUpgradeTime)
.invoke('text')
.should('not.eq', estimateText);
});
});
});
}
);
@@ -1,13 +1,12 @@
/// <reference types="cypress" />
import {
navigateTo,
navigation,
turnTelemetryOff,
waitForSpinner,
} from '../../support/common.functions';
import {
enterUniqueFreeFormProposalBody,
createTenDigitUnixTimeStampForSpecifiedDays,
enterRawProposalBody,
goToMakeNewProposal,
governanceProposalType,
} from '../../support/governance.functions';
@@ -47,12 +46,11 @@ context('View functionality with public key', { tags: '@smoke' }, function () {
.and('contain.text', 'USDC (fake)');
});
it.skip('Unable to submit proposal with public key', function () {
it('Unable to submit proposal with public key', function () {
const expectedErrorTxt = `You are connected in a view only state for public key: ${vegaWalletPubKey}. In order to send transactions you must connect to a real wallet.`;
navigateTo(navigation.proposals);
goToMakeNewProposal(governanceProposalType.FREEFORM);
enterUniqueFreeFormProposalBody('50', 'pub key proposal test');
goToMakeNewProposal(governanceProposalType.RAW);
enterRawProposalBody(createTenDigitUnixTimeStampForSpecifiedDays(8));
cy.getByTestId('dialog-content')
.first()
.within(() => {
@@ -11,6 +11,7 @@ import {
waitForBeginningOfEpoch,
} from '../../support/staking.functions';
import { previousEpochData } from '../../fixtures/mocks/previous-epoch';
import { chainIdQuery, statisticsQuery } from '@vegaprotocol/mock';
const guideLink = 'staking-guide-link';
const validatorTitle = 'validator-node-title';
@@ -33,11 +34,22 @@ const overstakedPenaltyToolTip = 'overstaked-penalty-tooltip';
const multisigPenaltyToolTip = 'multisig-error-tooltip';
const epochCountDown = 'epoch-countdown';
const stakeNumberRegex = /^\d{1,3}(,\d{3})*(\.\d+)?$/;
const txTimeout = Cypress.env('txTimeout');
context('Validators Page - verify elements on page', function () {
before('navigate to validators page', function () {
before('navigate to validators page', () => {
cy.mockGQL((req) => {
aliasGQLQuery(req, 'ChainId', chainIdQuery());
aliasGQLQuery(req, 'Statistics', statisticsQuery());
});
cy.visit('/validators');
});
beforeEach(() => {
cy.mockGQL((req) => {
aliasGQLQuery(req, 'ChainId', chainIdQuery());
aliasGQLQuery(req, 'Statistics', statisticsQuery());
});
});
describe('with wallets disconnected', { tags: '@smoke' }, function () {
it('Should have validators tab highlighted', function () {
@@ -177,6 +189,11 @@ context('Validators Page - verify elements on page', function () {
{ tags: '@smoke' },
function () {
before('connect wallets and click on validator', function () {
cy.mockGQL((req) => {
aliasGQLQuery(req, 'ChainId', chainIdQuery());
aliasGQLQuery(req, 'Statistics', statisticsQuery());
});
cy.visit('/validators');
cy.connectVegaWallet();
clickOnValidatorFromList(0);
});
@@ -263,7 +280,7 @@ context('Validators Page - verify elements on page', function () {
cy.getByTestId(epochCountDown).within(() => {
cy.get(epochTitle).should('not.be.empty');
cy.get(nextEpochInfo).should('contain.text', 'Next epoch');
cy.get(nextEpochInfo, txTimeout).should('contain.text', 'Next epoch');
});
});
}
@@ -4,6 +4,8 @@ import {
vegaWalletFaucetAssetsWithoutCheck,
vegaWalletTeardown,
} from '../../support/wallet-functions';
import { aliasGQLQuery } from '@vegaprotocol/cypress';
import { chainIdQuery, statisticsQuery } from '@vegaprotocol/mock';
const walletContainer = 'aside [data-testid="vega-wallet"]';
const walletHeader = '[data-testid="wallet-header"] h1';
@@ -14,10 +16,6 @@ const dialogHeader = 'dialog-title';
const walletDialogHeader = 'wallet-dialog-title';
const connectorsList = 'connectors-list';
const dialogCloseBtn = 'dialog-close';
const restConnectorForm = 'rest-connector-form';
const restWallet = '#wallet';
const restPassphrase = '#passphrase';
const restConnectBtn = '[type="submit"]';
const accountNo = 'vega-account-truncated';
const currencyTitle = 'currency-title';
const currencyValue = 'currency-value';
@@ -69,7 +67,7 @@ context(
cy.get(dialog).within(() => {
cy.getByTestId(walletDialogHeader)
.should('be.visible')
.and('have.text', 'Connect');
.and('have.text', 'Get a Vega wallet');
});
});
@@ -77,10 +75,7 @@ context(
cy.getByTestId(connectorsList).within(() => {
cy.getByTestId('connector-jsonRpc')
.should('be.visible')
.and('have.text', 'Connect Vega wallet');
cy.getByTestId('connector-hosted')
.should('be.visible')
.and('have.text', 'Hosted Fairground wallet');
.and('have.text', 'Use the Desktop App/CLI');
});
});
@@ -91,48 +86,14 @@ context(
});
});
describe('when rest connector form opened', function () {
before('click hosted wallet app button', function () {
cy.getByTestId(connectorsList).within(() => {
cy.getByTestId('connector-hosted').click();
});
});
// 0002-WCON-002
it('should have wallet field visible', function () {
cy.getByTestId(restConnectorForm).within(() => {
cy.get(restWallet).should('be.visible');
});
});
it('should have password field visible', function () {
cy.getByTestId(restConnectorForm).within(() => {
cy.get(restPassphrase).should('be.visible');
});
});
it('should have connect button visible', function () {
cy.getByTestId(restConnectorForm).within(() => {
cy.get(restConnectBtn)
.should('be.visible')
.and('have.text', 'Connect');
});
});
it('should have close button visible', function () {
cy.get(dialog).within(() => {
cy.getByTestId(dialogCloseBtn).should('be.visible');
});
});
after('close dialog', function () {
cy.getByTestId(dialogCloseBtn).click().should('not.exist');
});
});
describe('when vega wallet connected', function () {
before('connect vega wallet', function () {
cy.mockGQL((req) => {
aliasGQLQuery(req, 'ChainId', chainIdQuery());
aliasGQLQuery(req, 'Statistics', statisticsQuery());
});
cy.visit('/');
cy.wait('@ChainId');
cy.connectVegaWallet();
vegaWalletTeardown();
});
@@ -315,6 +276,10 @@ context(
];
before('faucet assets to connected vega wallet', function () {
cy.mockGQL((req) => {
aliasGQLQuery(req, 'ChainId', chainIdQuery());
aliasGQLQuery(req, 'Statistics', statisticsQuery());
});
for (const { id, amount } of assets) {
vegaWalletFaucetAssetsWithoutCheck(id, amount, vegaWalletPublicKey);
}
@@ -339,7 +304,7 @@ context(
cy.getByTestId(vegaWalletCurrencyTitle)
.contains(name)
.parent()
.siblings()
.siblings(txTimeout)
.should((elementAmount) => {
const displayedAmount = parseFloat(elementAmount.text());
expect(displayedAmount).be.gte(expectedAmount);
@@ -107,7 +107,7 @@ export function dissociateFromSecondWalletKey() {
cy.getByTestId('vega-in-wallet')
.first()
.within(() => {
cy.getByTestId('eth-wallet-associated-balances')
cy.getByTestId('eth-wallet-associated-balances', txTimeout)
.last()
.within(() => {
cy.getByTestId('associated-key')
@@ -232,6 +232,23 @@ export function getDownloadedProposalJsonPath(proposalType: string) {
return filepath;
}
export function validateProposalDetailsDiff(
RowName: string,
changeType: proposalChangeType,
newValue: string,
oldValue?: string
) {
cy.contains(RowName)
.parentsUntil(proposalInformationTableRows)
.parent()
.first()
.within(() => {
cy.contains(changeType).should('be.visible');
cy.contains(newValue).should('be.visible');
if (oldValue) cy.contains(oldValue).should('have.class', 'line-through');
});
}
function getFormattedTime() {
const now = new Date();
const day = now.getDate().toString().padStart(2, '0');
@@ -252,3 +269,8 @@ export enum governanceProposalType {
FREEFORM = 'Freeform',
RAW = 'raw proposal',
}
export enum proposalChangeType {
UPDATED = 'Updated',
ADDED = 'Added',
}
@@ -211,6 +211,143 @@ export function createNewMarketProposalTxBody(): ProposalSubmissionBody {
};
}
// Requires cy.createMarket() to be run to set up parent market
export function createSuccessorMarketProposalTxBody(
parentMarketId: string
): ProposalSubmissionBody {
const MIN_CLOSE_SEC = 10000;
const MIN_ENACT_SEC = 10000;
const closingDate = addSeconds(new Date(), MIN_CLOSE_SEC);
const enactmentDate = addSeconds(closingDate, MIN_ENACT_SEC);
const closingTimestamp = millisecondsToSeconds(closingDate.getTime());
const enactmentTimestamp = millisecondsToSeconds(enactmentDate.getTime());
return {
proposalSubmission: {
rationale: {
title: 'Test successor market proposal details',
description: 'E2E test for successor market',
},
terms: {
newMarket: {
changes: {
decimalPlaces: '5',
positionDecimalPlaces: '5',
linearSlippageFactor: '0.001',
quadraticSlippageFactor: '0',
lpPriceRange: '10',
instrument: {
name: 'Token test market',
code: 'TEST.24h',
future: {
settlementAsset:
'816af99af60d684502a40824758f6b5377e6af48e50a9ee8ef478ecb879ea8bc',
quoteName: 'fUSDC',
dataSourceSpecForSettlementData: {
external: {
oracle: {
signers: [
{
pubKey: {
key: '70d14a321e02e71992fd115563df765000ccc4775cbe71a0e2f9ff5a3b9dc680',
},
},
],
filters: [
{
key: {
name: 'prices.BTC.value',
type: 'TYPE_INTEGER' as const,
numberDecimalPlaces: '0',
},
conditions: [
{
operator: 'OPERATOR_GREATER_THAN' as const,
value: '0',
},
],
},
],
},
},
},
dataSourceSpecForTradingTermination: {
external: {
oracle: {
signers: [
{
pubKey: {
key: '70d14a321e02e71992fd115563df765000ccc4775cbe71a0e2f9ff5a3b9dc680',
},
},
],
filters: [
{
key: {
name: 'trading.terminated.ETH5',
type: 'TYPE_BOOLEAN' as const,
},
conditions: [
{
operator: 'OPERATOR_EQUALS' as const,
value: 'true',
},
],
},
],
},
},
},
dataSourceSpecBinding: {
settlementDataProperty: 'prices.BTC.value',
tradingTerminationProperty: 'trading.terminated.ETH5',
},
},
},
metadata: [
'sector:food',
'sector:materials',
'source:docs.vega.xyz',
],
priceMonitoringParameters: {
triggers: [
{
horizon: '43200',
probability: '0.9999999',
auctionExtension: '600',
},
],
},
liquidityMonitoringParameters: {
targetStakeParameters: {
timeWindow: '3600',
scalingFactor: 10,
},
triggeringRatio: '0.7',
auctionExtension: '1',
},
logNormal: {
tau: 0.0001140771161,
riskAversionParameter: 0.01,
params: {
mu: 0,
r: 0.016,
sigma: 0.5,
},
},
successor: {
parentMarketId: parentMarketId,
insurancePoolFraction: '0.75',
},
},
},
closingTimestamp,
enactmentTimestamp,
},
},
};
}
export function mockNetworkUpgradeProposal() {
cy.mockGQL((req) => {
aliasGQLQuery(req, 'Nodes', nodeData);
@@ -78,13 +78,21 @@ export function stakingPageAssociateTokens(
}
cy.get(tokenAmountInputBox, epochTimeout).type(amount);
if (approve) {
cy.get(tokenInputApprove, txTimeout).should('be.enabled').click();
cy.contains('Approve $VEGA Tokens for staking on Vega').should(
'be.visible'
);
cy.contains('Approve $VEGA Tokens for staking on Vega', txTimeout).should(
'not.exist'
);
cy.getByTestId('wallet-associate').then((walletAssociateField) => {
if (
walletAssociateField.find('[data-testid="token-input-approve-button"]')
.length
) {
cy.get(tokenInputApprove, txTimeout).should('be.enabled').click();
cy.contains('Approve $VEGA Tokens for staking on Vega').should(
'be.visible'
);
cy.contains(
'Approve $VEGA Tokens for staking on Vega',
txTimeout
).should('not.exist');
}
});
}
cy.get(tokenSubmitButton, txTimeout).should('be.enabled').click();
@@ -174,7 +182,8 @@ export function clickOnValidatorFromList(
cy.get(`[row-id="${validatorNumber}"]`)
.should('be.visible')
.find(stakeValidatorListName)
.click();
.as('validatorOnList');
cy.get('@validatorOnList').click();
}
}
+9
View File
@@ -18,6 +18,15 @@ NX_ANNOUNCEMENTS_CONFIG_URL=https://raw.githubusercontent.com/vegaprotocol/annou
NX_WALLETCONNECT_PROJECT_ID=fe8091dc35738863e509fc4947525c72
NX_VEGA_REST_URL=https://api.n00.stagnet1.vega.xyz/api/v2/
NX_TENDERMINT_URL=https://tm.n01.stagnet1.vega.rocks
NX_TENDERMINT_WEBSOCKET_URL=wss://tm.n01.stagnet1.vega.xyz/websocket
NX_CHROME_EXTENSION_URL=https://chrome.google.com/webstore/detail/vega-wallet-fairground/nmmjkiafpmphlikhefgjbblebfgclikn
NX_MOZILLA_EXTENSION_URL=https://addons.mozilla.org/pl/firefox/addon/vega-wallet
#Test configuration variables
CYPRESS_FAIRGROUND=false
LC_ALL="en_US.UTF-8"
# Cosmic elevator flags
NX_SUCCESSOR_MARKETS=true
+5
View File
@@ -19,6 +19,11 @@ NX_DELEGATIONS_PAGINATION=50
NX_TRANCHES_SERVICE_URL=https://tranches-stagnet1-k8s.ops.vega.xyz
NX_VEGA_REST_URL=http://localhost:3008/api/v2/
NX_TENDERMINT_URL=http://localhost:26617
NX_TENDERMINT_WEBSOCKET_URL=wss://localhost:26617/websocket
#Test configuration variables
CYPRESS_FAIRGROUND=false
# Cosmic elevator flags
NX_SUCCESSOR_MARKETS=false
+6
View File
@@ -13,3 +13,9 @@ NX_TRANCHES_SERVICE_URL=https://tranches-devnet1-k8s.ops.vega.xyz
NX_ANNOUNCEMENTS_CONFIG_URL=https://raw.githubusercontent.com/vegaprotocol/announcements/fairground/announcements.json
NX_VEGA_REST_URL=https://api.n00.devnet1.vega.xyz/api/v2/
NX_SENTRY_DSN=https://4b8c8a8ba07742648aa4dfe1b8d17e40@o286262.ingest.sentry.io/5882996
NX_TENDERMINT_URL=https://tm.be.devnet1.vega.xyz/
NX_TENDERMINT_WEBSOCKET_URL=wss://be.devnet1.vega.xyz/websocket
# Cosmic elevator flags
NX_SUCCESSOR_MARKETS=true
+6
View File
@@ -14,3 +14,9 @@ NX_DELEGATIONS_PAGINATION=50
NX_TRANCHES_SERVICE_URL=https://tranches-mainnet-k8s.ops.vega.xyz
NX_ANNOUNCEMENTS_CONFIG_URL=https://raw.githubusercontent.com/vegaprotocol/announcements/mainnet/announcements.json
NX_VEGA_REST_URL=https://api.vega.community/api/v2/
NX_TENDERMINT_URL=https://be.vega.community
NX_TENDERMINT_WEBSOCKET_URL=wss://be.vega.community/websocket
# Cosmic elevator flags
NX_SUCCESSOR_MARKETS=false
+8 -2
View File
@@ -1,8 +1,8 @@
# App configuration variables
NX_VEGA_ENV=MAINNET-MIRROR
NX_VEGA_ENV=MAINNET_MIRROR
NX_VEGA_CONFIG_URL=https://raw.githubusercontent.com/vegaprotocol/networks-internal/main/mainnet-mirror/vegawallet-mainnet-mirror.toml
NX_VEGA_URL=https://api.mainnet-mirror.vega.rocks/graphql
NX_VEGA_NETWORKS='{"DEVNET":"https://dev.governance.vega.xyz","TESTNET":"https://governance.fairground.wtf","MAINNET":"https://governance.vega.xyz","MAINNET-MIRROR":"https://governance.mainnet-mirror.vega.rocks","STAGNET1":"https://trading.stagnet1.vega.rocks"}'
NX_VEGA_NETWORKS='{"DEVNET":"https://dev.governance.vega.xyz","TESTNET":"https://governance.fairground.wtf","MAINNET":"https://governance.vega.xyz","MAINNET_MIRROR":"https://governance.mainnet-mirror.vega.rocks","STAGNET1":"https://trading.stagnet1.vega.rocks"}'
NX_ETHEREUM_PROVIDER_URL=https://sepolia.infura.io/v3/4f846e79e13f44d1b51bbd7ed9edefb8
NX_ETHERSCAN_URL=https://sepolia.etherscan.io
NX_GITHUB_FEEDBACK_URL=https://github.com/vegaprotocol/feedback/discussions
@@ -13,3 +13,9 @@ NX_DELEGATIONS_PAGINATION=50
NX_TRANCHES_SERVICE_URL=https://tranches-mainnet-mirror-k8s.ops.vega.xyz
NX_ANNOUNCEMENTS_CONFIG_URL=https://raw.githubusercontent.com/vegaprotocol/announcements/mainnet/announcements.json
NX_VEGA_REST_URL=https://api.mainnet-mirror.vega.rocks/api/v2/
NX_TENDERMINT_URL=https://be.mainnet-mirror.vega.rocks
NX_TENDERMINT_WEBSOCKET_URL=wss://be.mainnet-mirror.vega.rocks/websocket
# Cosmic elevator flags
NX_SUCCESSOR_MARKETS=false
+6
View File
@@ -9,3 +9,9 @@ NX_DELEGATIONS_PAGINATION=50
NX_TRANCHES_SERVICE_URL=https://tranches-stagnet1-k8s.ops.vega.xyz
NX_ANNOUNCEMENTS_CONFIG_URL=https://raw.githubusercontent.com/vegaprotocol/announcements/fairground/announcements.json
NX_VEGA_REST_URL=https://api.n00.stagnet1.vega.xyz/api/v2/
NX_TENDERMINT_URL=https://tm.n01.stagnet1.vega.rocks
NX_TENDERMINT_WEBSOCKET_URL=wss://tm.n01.stagnet1.vega.xyz/websocket
# Cosmic elevator flags
NX_SUCCESSOR_MARKETS=true
+6
View File
@@ -14,3 +14,9 @@ NX_TRANCHES_SERVICE_URL=https://tranches-testnet-k8s.ops.vega.xyz
NX_ANNOUNCEMENTS_CONFIG_URL=https://raw.githubusercontent.com/vegaprotocol/announcements/fairground/announcements.json
NX_VEGA_REST_URL=https://api.n07.testnet.vega.xyz/api/v2/
NX_SENTRY_DSN=https://4b8c8a8ba07742648aa4dfe1b8d17e40@o286262.ingest.sentry.io/5882996
NX_TENDERMINT_URL=https://tm.be.testnet.vega.xyz
NX_TENDERMINT_WEBSOCKET_URL=wss://be.testnet.vega.xyz/websocket
# Cosmic elevator flags
NX_SUCCESSOR_MARKETS=true
+6
View File
@@ -11,3 +11,9 @@ NX_VEGA_EXPLORER_URL=https://explorer.validators-testnet.vega.rocks/
NX_ANNOUNCEMENTS_CONFIG_URL=https://raw.githubusercontent.com/vegaprotocol/announcements/fairground/announcements.json
NX_VEGA_REST_URL=https://api-validators-testnet.vega.rocks/api/v2/
NX_SENTRY_DSN=https://4b8c8a8ba07742648aa4dfe1b8d17e40@o286262.ingest.sentry.io/5882996
NX_TENDERMINT_URL=https://tm.be.validators-testnet.vega.rocks
NX_TENDERMINT_WEBSOCKET_URL=wss://be.validators-testnet.vega.
# Cosmic elevator flags
NX_SUCCESSOR_MARKETS=false
+4 -5
View File
@@ -2,14 +2,13 @@ import * as Sentry from '@sentry/react';
import { toBigNum } from '@vegaprotocol/utils';
import { Splash } from '@vegaprotocol/ui-toolkit';
import { useVegaWallet, useEagerConnect } from '@vegaprotocol/wallet';
import { useEnvironment } from '@vegaprotocol/environment';
import { FLAGS, useEnvironment } from '@vegaprotocol/environment';
import { useWeb3React } from '@web3-react/core';
import React from 'react';
import { useTranslation } from 'react-i18next';
import { SplashError } from './components/splash-error';
import { SplashLoader } from './components/splash-loader';
import { Flags } from './config';
import {
AppStateActionType,
useAppState,
@@ -80,7 +79,7 @@ export const AppLoader = ({ children }: { children: React.ReactElement }) => {
}
};
if (!Flags.NETWORK_DOWN) {
if (!FLAGS.GOVERNANCE_NETWORK_DOWN) {
run();
}
}, [token, appDispatch, staking, vesting]);
@@ -148,7 +147,7 @@ export const AppLoader = ({ children }: { children: React.ReactElement }) => {
};
// Only begin polling if network limits flag is set, as this is a new API not yet on mainnet 7/3/22
if (Flags.NETWORK_LIMITS) {
if (FLAGS.GOVERNANCE_NETWORK_LIMITS) {
getNetworkLimits();
}
@@ -157,7 +156,7 @@ export const AppLoader = ({ children }: { children: React.ReactElement }) => {
};
}, [appDispatch, VEGA_URL, t]);
if (Flags.NETWORK_DOWN) {
if (FLAGS.GOVERNANCE_NETWORK_DOWN) {
return (
<Splash>
<SplashError />
@@ -2,13 +2,8 @@ import { Button } from '@vegaprotocol/ui-toolkit';
import React from 'react';
import { useTranslation } from 'react-i18next';
import { useVegaWalletDialogStore } from '@vegaprotocol/wallet';
import {
AppStateActionType,
useAppState,
} from '../../contexts/app-state/app-state-context';
export const ConnectToVega = () => {
const { appDispatch } = useAppState();
const { t } = useTranslation();
const { openVegaWalletDialog } = useVegaWalletDialogStore((store) => ({
openVegaWalletDialog: store.openVegaWalletDialog,
@@ -16,10 +11,6 @@ export const ConnectToVega = () => {
return (
<Button
onClick={() => {
appDispatch({
type: AppStateActionType.SET_VEGA_WALLET_OVERLAY,
isOpen: true,
});
openVegaWalletDialog();
}}
data-testid="connect-to-vega-wallet-btn"
@@ -0,0 +1 @@
export * from './json-diff';
@@ -0,0 +1,30 @@
import { render, screen, cleanup } from '@testing-library/react';
import { JsonDiff } from './json-diff';
describe('JsonDiff', () => {
afterEach(cleanup);
it('renders without crashing', () => {
render(<JsonDiff left={{}} right={{}} />);
expect(screen.getByTestId('json-diff')).toBeInTheDocument();
});
it('shows the correct message when both objects are identical', () => {
render(<JsonDiff left={{}} right={{}} />);
expect(screen.getByText('Data is identical')).toBeInTheDocument();
});
it('does not show the "identical" message when both objects are not identical', () => {
render(
<JsonDiff
left={{
name: 'test',
}}
right={{
name: 'test2',
}}
/>
);
expect(screen.queryByText('Data is identical')).not.toBeInTheDocument();
});
});
@@ -0,0 +1,46 @@
import { useState, useEffect } from 'react';
import { useTranslation } from 'react-i18next';
import { formatters, create } from 'jsondiffpatch';
import 'jsondiffpatch/dist/formatters-styles/html.css';
import 'jsondiffpatch/dist/formatters-styles/annotated.css';
export type JsonValue =
| string
| number
| boolean
| null
| JsonValue[]
| { [key: string]: JsonValue };
interface JsonDiffProps {
left: JsonValue;
right: JsonValue;
objectHash?: (obj: unknown) => string | undefined;
}
export const JsonDiff = ({ right, left, objectHash }: JsonDiffProps) => {
const { t } = useTranslation();
const [html, setHtml] = useState<string | undefined>();
useEffect(() => {
const delta = create({
objectHash,
}).diff(left, right);
if (delta) {
const deltaHtml = formatters.html.format(delta, left);
formatters.html.hideUnchanged();
setHtml(deltaHtml);
} else {
setHtml(undefined);
}
}, [right, left, objectHash]);
return html ? (
<div data-testid="json-diff" dangerouslySetInnerHTML={{ __html: html }} />
) : (
<p data-testid="json-diff">{t('dataIsIdentical')}</p>
);
};
+7 -1
View File
@@ -18,6 +18,7 @@ import { VegaWallet } from '../vega-wallet';
import { useLocation, useMatch } from 'react-router-dom';
import { useEffect } from 'react';
import { useTelemetryDialog } from '../telemetry-dialog/telemetry-dialog';
import { ProtocolUpgradeCountdown } from '@vegaprotocol/proposals';
export const SettingsLink = () => {
const { open, isOpen, close } = useTelemetryDialog();
@@ -61,7 +62,12 @@ export const Nav = ({ theme }: Pick<NavigationProps, 'theme'>) => {
appName="Governance"
theme={theme}
breakpoints={[458, 959]}
actions={<SettingsLink />}
actions={
<>
<SettingsLink />
<ProtocolUpgradeCountdown />
</>
}
>
<NavigationList
className="[.drawer-content_&]:border-b [.drawer-content_&]:border-b-vega-light-200 dark:[.drawer-content_&]:border-b-vega-dark-200 [.drawer-content_&]:pb-8 [.drawer-content_&]:mb-2"
@@ -4,7 +4,11 @@ import type { ReactNode } from 'react';
import { AnnouncementBanner } from '@vegaprotocol/announcements';
import { Nav } from '../nav';
import { Networks, useEnvironment } from '@vegaprotocol/environment';
import React from 'react';
import {
ProtocolUpgradeCountdownMode,
ProtocolUpgradeProposalNotification,
} from '@vegaprotocol/proposals';
import { ViewingAsBanner } from '@vegaprotocol/ui-toolkit';
interface AppLayoutProps {
children: ReactNode;
@@ -31,8 +35,23 @@ export const AppLayout = ({ children }: AppLayoutProps) => {
/>
)}
<Nav theme={VEGA_ENV === Networks.TESTNET ? 'yellow' : 'dark'} />
<NotificationsContainer />
</div>
<div className={AppLayoutClasses}>{children}</div>
</div>
);
};
const NotificationsContainer = () => {
const { isReadOnly, pubKey, disconnect } = useVegaWallet();
return (
<div data-testid="banners">
<ProtocolUpgradeProposalNotification
mode={ProtocolUpgradeCountdownMode.IN_ESTIMATED_TIME_REMAINING}
/>
{isReadOnly ? (
<ViewingAsBanner pubKey={pubKey} disconnect={disconnect} />
) : null}
</div>
);
};
@@ -1,5 +1,3 @@
import { ViewingAsBanner } from '@vegaprotocol/ui-toolkit';
import { useVegaWallet } from '@vegaprotocol/wallet';
import React from 'react';
export interface TemplateSidebarProps {
@@ -8,24 +6,18 @@ export interface TemplateSidebarProps {
}
export function TemplateSidebar({ children, sidebar }: TemplateSidebarProps) {
const { isReadOnly, pubKey, disconnect } = useVegaWallet();
return (
<>
{isReadOnly ? (
<ViewingAsBanner pubKey={pubKey} disconnect={disconnect} />
) : null}
<div className="w-full border-b border-neutral-700 lg:grid lg:grid-rows-[1fr] lg:grid-cols-[1fr_450px]">
<main className="max-w-[100vw] col-start-1 p-4 overflow-auto">
{children}
</main>
<aside className="col-start-2 row-start-1 row-span-2 hidden lg:block p-4 bg-banner bg-contain border-l border-neutral-700">
{sidebar.map((Component, i) => (
<section className="mb-4 last:mb-0" key={i}>
{Component}
</section>
))}
</aside>
</div>
</>
<div className="w-full border-b border-neutral-700 lg:grid lg:grid-rows-[1fr] lg:grid-cols-[1fr_450px]">
<main className="max-w-[100vw] col-start-1 p-4 overflow-auto">
{children}
</main>
<aside className="col-start-2 row-start-1 row-span-2 hidden lg:block p-4 bg-banner bg-contain border-l border-neutral-700">
{sidebar.map((Component, i) => (
<section className="mb-4 last:mb-0" key={i}>
{Component}
</section>
))}
</aside>
</div>
);
}
@@ -3,11 +3,6 @@ import { useVegaWallet, useVegaWalletDialogStore } from '@vegaprotocol/wallet';
import React from 'react';
import { useTranslation } from 'react-i18next';
import {
AppStateActionType,
useAppState,
} from '../../contexts/app-state/app-state-context';
interface VegaWalletContainerProps {
children: (key: string) => React.ReactElement;
}
@@ -15,7 +10,6 @@ interface VegaWalletContainerProps {
export const VegaWalletContainer = ({ children }: VegaWalletContainerProps) => {
const { t } = useTranslation();
const { pubKey } = useVegaWallet();
const { appDispatch } = useAppState();
const { openVegaWalletDialog } = useVegaWalletDialogStore((store) => ({
openVegaWalletDialog: store.openVegaWalletDialog,
}));
@@ -25,10 +19,6 @@ export const VegaWalletContainer = ({ children }: VegaWalletContainerProps) => {
<Button
data-testid="connect-to-vega-wallet-btn"
onClick={() => {
appDispatch({
type: AppStateActionType.SET_VEGA_WALLET_OVERLAY,
isOpen: true,
});
openVegaWalletDialog();
}}
>
@@ -1,4 +1,8 @@
import { VegaConnectDialog, VegaManageDialog } from '@vegaprotocol/wallet';
import {
VegaConnectDialog,
VegaManageDialog,
ViewAsDialog,
} from '@vegaprotocol/wallet';
import {
AppStateActionType,
useAppState,
@@ -13,12 +17,6 @@ export const VegaWalletDialogs = () => {
<>
<VegaConnectDialog
connectors={Connectors}
onChangeOpen={(open) =>
appDispatch({
type: AppStateActionType.SET_VEGA_WALLET_OVERLAY,
isOpen: open,
})
}
riskMessage={<RiskMessage />}
/>
@@ -31,6 +29,8 @@ export const VegaWalletDialogs = () => {
})
}
/>
<ViewAsDialog connector={Connectors.view} />
</>
);
};
@@ -1,17 +0,0 @@
import { Link } from '@vegaprotocol/ui-toolkit';
import { useTranslation } from 'react-i18next';
import { ExternalLinks } from '@vegaprotocol/environment';
export const DownloadWalletPrompt = () => {
const { t } = useTranslation();
return (
<>
<h3 className="mt-4 mb-2">{t('getWallet')}</h3>
<p>
<Link className="text-neutral-500" href={ExternalLinks.VEGA_WALLET_URL}>
{t('getWalletLink')}
</Link>
</p>
</>
);
};
@@ -0,0 +1,26 @@
import { ButtonLink, Link } from '@vegaprotocol/ui-toolkit';
import { useTranslation } from 'react-i18next';
import { ExternalLinks } from '@vegaprotocol/environment';
import { useViewAsDialog } from '@vegaprotocol/wallet';
export const VegaWalletPrompt = () => {
const { t } = useTranslation();
const setViewAsDialog = useViewAsDialog((state) => state.setOpen);
return (
<>
<h3 className="mt-4 mb-2">{t('getWallet')}</h3>
<div className="flex flex-row gap-4">
<Link className="text-neutral-500" href={ExternalLinks.VEGA_WALLET_URL}>
{t('getWalletLink')}
</Link>
<ButtonLink
className="text-neutral-500"
data-testid="view-as-user"
onClick={() => setViewAsDialog(true)}
>
{t('viewAsParty')}
</ButtonLink>
</div>
</>
);
};
@@ -20,7 +20,7 @@ import {
WalletCardHeader,
WalletCardRow,
} from '../wallet-card';
import { DownloadWalletPrompt } from './download-wallet-prompt';
import { VegaWalletPrompt } from './vega-wallet-prompt';
import { usePollForDelegations } from './hooks';
import { useVegaWallet, useVegaWalletDialogStore } from '@vegaprotocol/wallet';
import { Button, ButtonLink } from '@vegaprotocol/ui-toolkit';
@@ -71,7 +71,6 @@ export const VegaWallet = () => {
const VegaWalletNotConnected = () => {
const { t } = useTranslation();
const { appDispatch } = useAppState();
const { openVegaWalletDialog } = useVegaWalletDialogStore((store) => ({
openVegaWalletDialog: store.openVegaWalletDialog,
}));
@@ -79,10 +78,6 @@ const VegaWalletNotConnected = () => {
<>
<Button
onClick={() => {
appDispatch({
type: AppStateActionType.SET_VEGA_WALLET_OVERLAY,
isOpen: true,
});
openVegaWalletDialog();
}}
fill={true}
@@ -90,7 +85,7 @@ const VegaWalletNotConnected = () => {
>
{t('connectVegaWalletToUseAssociated')}
</Button>
<DownloadWalletPrompt />
<VegaWalletPrompt />
</>
);
};
+4 -6
View File
@@ -25,6 +25,10 @@ export const ContractAddresses: {
claimAddress: customClaimAddress ?? '0x0',
lockedAddress: customLockedAddress ?? '0x0',
},
MAINNET_MIRROR: {
claimAddress: '0x8Cef746ab7C83B61F6461cC92882bD61AB65a994', // TODO not deployed to this env, but random address so app doesn't error
lockedAddress: '0x0', // TODO not deployed to this env
},
DEVNET: {
claimAddress: '0x8Cef746ab7C83B61F6461cC92882bD61AB65a994', // TODO not deployed to this env, but random address so app doesn't error
lockedAddress: '0x0', // TODO not deployed to this env
@@ -63,12 +67,6 @@ export const ENV = {
localProviderUrl: windowOrDefault('NX_LOCAL_PROVIDER_URL'),
delegationsPagination: windowOrDefault('NX_DELEGATIONS_PAGINATION'),
rest: windowOrDefault('NX_VEGA_REST_URL'),
flags: {
NETWORK_DOWN: TRUTHY.includes(windowOrDefault('NX_NETWORK_DOWN')),
MOCK: TRUTHY.includes(windowOrDefault('NX_MOCKED')),
FAIRGROUND: TRUTHY.includes(windowOrDefault('NX_FAIRGROUND')),
NETWORK_LIMITS: TRUTHY.includes(windowOrDefault('NX_NETWORK_LIMITS')),
},
addresses:
ContractAddresses[(envName === 'local' ? 'CUSTOM' : envName) as Networks],
};
-5
View File
@@ -1,5 +0,0 @@
import { ENV } from './env';
export const Flags = {
...ENV.flags,
};
-1
View File
@@ -1,2 +1 @@
export * from './flags';
export * from './env';
@@ -28,9 +28,6 @@ export interface AppState {
/** Total number of VEGA Tokens, both vesting and unlocked, associated for staking */
totalAssociated: BigNumber;
/** Whether or not the connect to VEGA wallet overlay is open */
vegaWalletOverlay: boolean;
/** Whether or not the manage VEGA wallet overlay is open */
vegaWalletManageOverlay: boolean;
@@ -52,9 +49,7 @@ export enum AppStateActionType {
SET_TOKEN,
SET_ALLOWANCE,
REFRESH_BALANCES,
SET_VEGA_WALLET_OVERLAY,
SET_VEGA_WALLET_MANAGE_OVERLAY,
SET_DRAWER,
REFRESH_ASSOCIATED_BALANCES,
SET_ASSOCIATION_BREAKDOWN,
SET_TRANSACTION_OVERLAY,
@@ -69,18 +64,10 @@ export type AppStateAction =
totalSupply: BigNumber;
totalAssociated: BigNumber;
}
| {
type: AppStateActionType.SET_VEGA_WALLET_OVERLAY;
isOpen: boolean;
}
| {
type: AppStateActionType.SET_VEGA_WALLET_MANAGE_OVERLAY;
isOpen: boolean;
}
| {
type: AppStateActionType.SET_DRAWER;
isOpen: boolean;
}
| {
type: AppStateActionType.SET_TRANSACTION_OVERLAY;
isOpen: boolean;
@@ -14,7 +14,6 @@ const initialAppState: AppState = {
totalAssociated: new BigNumber(0),
decimals: 0,
totalSupply: new BigNumber(0),
vegaWalletOverlay: false,
vegaWalletManageOverlay: false,
transactionOverlay: false,
bannerMessage: '',
@@ -31,23 +30,10 @@ function appStateReducer(state: AppState, action: AppStateAction): AppState {
totalAssociated: action.totalAssociated,
};
}
case AppStateActionType.SET_VEGA_WALLET_OVERLAY: {
return {
...state,
vegaWalletOverlay: action.isOpen,
};
}
case AppStateActionType.SET_VEGA_WALLET_MANAGE_OVERLAY: {
return {
...state,
vegaWalletManageOverlay: action.isOpen,
vegaWalletOverlay: action.isOpen ? false : state.vegaWalletOverlay,
};
}
case AppStateActionType.SET_DRAWER: {
return {
...state,
vegaWalletOverlay: false,
};
}
case AppStateActionType.SET_TRANSACTION_OVERLAY: {
+22 -3
View File
@@ -166,6 +166,7 @@
"proposedEnactment": "Proposed enactment",
"Enacted": "Enacted",
"enactedOn": "Enacted on",
"enactedOn{{date}}": "Enacted on {{enactmentDate}}",
"status": "Status",
"state": "State",
"shouldPass": "Should pass",
@@ -185,6 +186,7 @@
"proposedOn": "Proposed on",
"proposedBy": "Proposed by",
"toEnactOn": "Enacts on",
"enactsOn{{date}}": "Enacts on {{enactmentDate}}",
"closesOn": "Closes on",
"closedOn": "Closed on",
"errorDetails": "Error details",
@@ -217,6 +219,7 @@
"votingThresholdInfo": "If the token vote passes the participation threshold it will be the deciding vote. If not, the outcome will be determined by liquidity providers on this market.",
"noGovernanceTokens": "You need some VEGA tokens to participate in governance",
"youVoted": "You voted",
"voted": "Voted",
"changeVote": "Change vote",
"txRequested": "Confirm transaction in wallet",
"votePending": "Casting vote",
@@ -628,7 +631,6 @@
"pendingDescriptionLinkText": "set up and run a node on Vega",
"pendingDescription2": ". A node can move from being a candidate into standby based on how much nomination it attracts, assuming it has proven reliability by sending heartbeats to the network.",
"n/a": "N/A",
"Set to": "Set to",
"pass": "pass",
"fail": "fail",
"New asset": "New asset",
@@ -788,7 +790,7 @@
"overstakedPenalty": "Overstaked penalty",
"multisigPenalty": "Multisig penalty",
"homeProposalsIntro": "Decisions on the Vega network are on-chain, with tokenholders creating proposals that other tokenholders vote to approve or reject. Network upgrades are proposed and approved by validators.",
"homeProposalsButtonText": "Browse, vote, and propose",
"homeProposalsButtonText": "See all proposals",
"homeValidatorsIntro": "Vega runs on a delegated proof of stake blockchain, where validators earn fees for validating block transactions. Tokenholders can nominate validators by staking tokens to them.",
"homeValidatorsButtonText": "Browse, and stake",
"homeRewardsIntro": "Track rewards you've earned for trading, liquidity provision, market creation, and staking.",
@@ -837,5 +839,22 @@
"RejectedProposals": "Rejected proposals",
"networkGovernance": "Network governance",
"networkUpgrades": "Network upgrades",
"assetSpecification": "Asset specification"
"assetSpecification": "Asset specification",
"viewDetails": "View details",
"vegaGovernance": "Vega Governance",
"latestProposals": "Latest proposals",
"vegaToken": "VEGA Token",
"majorityVotedForProposal": "majority voted for this proposal",
"majorityNotVotedForProposal": "majority not voted for this proposal",
"requiredMajorityVotedForProposal": "Required majority voted for this proposal",
"requiredMajorityNotVotedForProposal": "Required majority not voted for this proposal",
"minParticipationReached": "Min. participation reached",
"minParticipationNotReached": "Min. participation not reached",
"consensusNodes": "consensus nodes",
"activeNodes": "active nodes",
"Estimated time to upgrade": "Estimated time to upgrade",
"Upgraded at": "Upgraded at",
"dataIsIdentical": "Data is identical",
"updatesToMarket": "Updates to market",
"viewAsParty": "View as party"
}
+20 -13
View File
@@ -1,8 +1,8 @@
<!DOCTYPE html>
<html lang="en" class="dark bg-black w-full h-full">
<head>
<meta name="viewport" content="width=device-width, initial-scale=1" />
<meta charset="utf-8" />
<link rel="stylesheet" href="//static.vega.xyz/fonts.css" />
<link
rel="icon"
type="image/x-icon"
@@ -10,35 +10,42 @@
/>
<meta name="viewport" content="width=device-width, initial-scale=1" />
<meta name="theme-color" content="#000000" />
<meta name="description" content="Vega Protocol - VEGA Token Vesting" />
<meta name="description" content="Vega Protocol - VEGA Governance" />
<meta name="og:type" content="website" />
<meta name="og:url" content="https://governance.vega.xyz/" />
<meta name="og:title" content="Vega Protocol - Governance" />
<meta name="og:site_name" content="Vega Protocol - Governance" />
<meta name="og:image" content="https://static.vega.xyz/favicon.ico" />
<meta name="twitter:card" content="summary_large_image" />
<meta name="twitter:title" content="Vega Protocol - Governance" />
<meta name="twitter:description" content="Vega Protocol - Governance" />
<meta name="twitter:image" content="https://static.vega.xyz/favicon.ico" />
<meta name="twitter:image:alt" content="VEGA logo" />
<meta name="twitter:site" content="@vegaprotocol" />
<meta name="description" content="Vega Protocol - Governance" />
<link rel="apple-touch-icon" href="assets/apple-touch-icon.png" />
<!--
manifest.json provides metadata used when your web app is installed on a
user's mobile device or desktop. See https://developers.google.com/web/fundamentals/web-app-manifest/
-->
<link rel="manifest" href="assets/manifest.json" />
<link
rel="preload"
href="https://static.vega.xyz/AlphaLyrae-Medium.woff2"
as="font"
type="font/woff2"
crossorigin="anonymous"
/>
<title>Vega Governance dApp</title>
<title>VEGA Governance</title>
<script src="./assets/env-config.js"></script>
</head>
<body class="h-full">
<noscript>You need to enable JavaScript to run this app.</noscript>
<noscript> You need to enable JavaScript to run this app. </noscript>
<div id="root" class="h-full"></div>
<!--
This HTML file is a template.
<!-- This HTML file is a template.
If you open it directly in the browser, you will see an empty page.
You can add webfonts, meta tags, or analytics to this file.
The build step will place the bundled scripts into the <body> tag.
To begin the development, run `npm start` or `yarn start`.
To create a production bundle, use `npm run build` or `yarn build`.
-->
To create a production bundle, use `npm run build` or `yarn build`. -->
</body>
</html>
+1 -1
View File
@@ -20,6 +20,6 @@ export const downloadJson = (jsonString: string, proposalTitle: string) => {
window.URL.revokeObjectURL(url);
document.body.removeChild(a);
} catch (error) {
console.log(error);
console.error(error);
}
};
+3 -3
View File
@@ -1,17 +1,17 @@
import {
RestConnector,
JsonRpcConnector,
ViewConnector,
InjectedConnector,
} from '@vegaprotocol/wallet';
const urlParams = new URLSearchParams(window.location.search);
export const rest = new RestConnector();
export const injected = new InjectedConnector();
export const jsonRpc = new JsonRpcConnector();
export const view = new ViewConnector(urlParams.get('address'));
export const Connectors = {
rest,
injected,
jsonRpc,
view,
};
+59 -28
View File
@@ -20,7 +20,7 @@ import {
getNotRejectedProposals,
getNotRejectedProtocolUpgradeProposals,
} from '../proposals/proposals/proposals-container';
import { Heading } from '../../components/heading';
import { Heading, SubHeading } from '../../components/heading';
import * as Schema from '@vegaprotocol/types';
import type { RouteChildProps } from '..';
import type { ProposalFieldsFragment } from '../proposals/proposals/__generated__/Proposals';
@@ -31,6 +31,11 @@ import {
orderByDate,
orderByUpgradeBlockHeight,
} from '../proposals/components/proposals-list/proposals-list';
import {
NetworkParams,
useNetworkParams,
} from '@vegaprotocol/network-parameters';
import { BigNumber } from '../../lib/bignumber';
const nodesToShow = 6;
@@ -42,33 +47,57 @@ const HomeProposals = ({
protocolUpgradeProposals: ProtocolUpgradeProposalFieldsFragment[];
}) => {
const { t } = useTranslation();
const {
params: networkParams,
loading: networkParamsLoading,
error: networkParamsError,
} = useNetworkParams([
NetworkParams.governance_proposal_market_requiredMajority,
NetworkParams.governance_proposal_updateMarket_requiredMajority,
NetworkParams.governance_proposal_updateMarket_requiredMajorityLP,
NetworkParams.governance_proposal_asset_requiredMajority,
NetworkParams.governance_proposal_updateAsset_requiredMajority,
NetworkParams.governance_proposal_updateNetParam_requiredMajority,
NetworkParams.governance_proposal_freeform_requiredMajority,
]);
return (
<section className="mb-16" data-testid="home-proposals">
<Heading title={t('Proposals')} />
<h3 className="mb-6">{t('homeProposalsIntro')}</h3>
<div className="flex items-center mb-8 gap-8">
<Link to={`${Routes.PROPOSALS}`}>
<Button size="md">{t('homeProposalsButtonText')}</Button>
</Link>
<AsyncRenderer
loading={networkParamsLoading}
error={networkParamsError}
data={networkParams}
>
<section className="mb-16" data-testid="home-proposals">
<Heading title={t('vegaGovernance')} />
<h3 className="mb-6">{t('homeProposalsIntro')}</h3>
<div className="mb-8">
<ExternalLink href={ExternalLinks.GOVERNANCE_PAGE}>
{t(`readMoreGovernance`)}
</ExternalLink>
</div>
<ExternalLink href={ExternalLinks.GOVERNANCE_PAGE}>
{t(`readMoreGovernance`)}
</ExternalLink>
</div>
<ul
data-testid="home-proposal-list"
className="grid md:grid-cols-2 lg:grid-cols-1 xl:grid-cols-2 gap-6"
>
{protocolUpgradeProposals.map((proposal, index) => (
<ProtocolUpgradeProposalsListItem key={index} proposal={proposal} />
))}
<SubHeading title={t('latestProposals')} />
<ul data-testid="home-proposal-list" className="grid gap-6">
{protocolUpgradeProposals.map((proposal, index) => (
<ProtocolUpgradeProposalsListItem key={index} proposal={proposal} />
))}
{proposals.map((proposal) => (
<ProposalsListItem key={proposal.id} proposal={proposal} />
))}
</ul>
</section>
{proposals.map((proposal) => (
<ProposalsListItem
key={proposal.id}
proposal={proposal}
networkParams={networkParams}
/>
))}
</ul>
<div className="mt-6">
<Link to={`${Routes.PROPOSALS}`}>
<Button size="md">{t('homeProposalsButtonText')}</Button>
</Link>
</div>
</section>
</AsyncRenderer>
);
};
@@ -86,8 +115,8 @@ const HomeNodes = ({
const { t } = useTranslation();
const highlightedNodeData = [
{ title: t('active nodes'), length: activeNodes.length },
{ title: t('consensus nodes'), length: consensusNodes.length },
{ title: t('activeNodes'), length: activeNodes.length },
{ title: t('consensusNodes'), length: consensusNodes.length },
];
return (
@@ -233,7 +262,7 @@ const GovernanceHome = ({ name }: RouteChildProps) => {
[protocolUpgradeProposals]
);
const totalProposalsDesired = 4;
const totalProposalsDesired = 3;
const protocolUpgradeProposalsToShow = sortedProtocolUpgradeProposals.slice(
0,
totalProposalsDesired
@@ -248,6 +277,8 @@ const GovernanceHome = ({ name }: RouteChildProps) => {
const activeNodes = removePaginationWrapper(
validatorsData?.nodesConnection.edges
).filter((node) =>
new BigNumber(node.rankingScore.performanceScore).isGreaterThan(0)
);
const trimmedActiveNodes = activeNodes?.slice(0, nodesToShow);
@@ -287,7 +318,7 @@ const GovernanceHome = ({ name }: RouteChildProps) => {
</div>
<div data-testid="home-vega-token">
<Heading title={t('VEGA Token')} marginTop={false} />
<Heading title={t('vegaToken')} marginTop={false} />
<h3 className="mb-6">{t('homeVegaTokenIntro')}</h3>
<div className="flex items-center mb-8 gap-4">
<Link to={Routes.WITHDRAWALS}>
@@ -1,5 +1,4 @@
import { useTranslation } from 'react-i18next';
import { Icon } from '@vegaprotocol/ui-toolkit';
import type { ProposalFieldsFragment } from '../../proposals/__generated__/Proposals';
import type { ProposalQuery } from '../../proposal/__generated__/Proposal';
import { ProposalState } from '@vegaprotocol/types';
@@ -18,53 +17,32 @@ export const CurrentProposalState = ({
switch (proposal?.state) {
case ProposalState.STATE_ENACTED: {
proposalStatus = (
<>
<span className="mr-2">{t('voteState_Enacted')}</span>
<Icon name={'tick'} />
</>
);
proposalStatus = t('voteState_Enacted');
break;
}
case ProposalState.STATE_PASSED: {
proposalStatus = (
<>
<span className="mr-2">{t('voteState_Passed')}</span>
<Icon name={'tick'} />
</>
);
proposalStatus = t('voteState_Passed');
break;
}
case ProposalState.STATE_WAITING_FOR_NODE_VOTE: {
proposalStatus = (
<>
<span className="mr-2">{t('voteState_WaitingForNodeVote')}</span>
<Icon name={'time'} />
</>
);
proposalStatus = t('voteState_WaitingForNodeVote');
break;
}
case ProposalState.STATE_OPEN: {
variant = 'primary' as ProposalInfoLabelVariant;
proposalStatus = <>{t('voteState_Open')}</>;
proposalStatus = t('voteState_Open');
break;
}
case ProposalState.STATE_DECLINED: {
proposalStatus = (
<>
<span className="mr-2">{t('voteState_Declined')}</span>
<Icon name={'cross'} />
</>
);
proposalStatus = t('voteState_Declined');
break;
}
case ProposalState.STATE_REJECTED: {
proposalStatus = (
<>
<span className="mr-2">{t('voteState_Rejected')}</span>
<Icon name={'warning-sign'} />
</>
);
proposalStatus = t('voteState_Rejected');
break;
}
case ProposalState.STATE_FAILED: {
proposalStatus = t('voteState_Failed');
break;
}
}

Some files were not shown because too many files have changed in this diff Show More